Flight Track Log - Related Links

Times and Time Zones

All times are in EDT time to prevent confusion due to time zone crossing. See the AFL150 flight status page for this flight to view local times or setup timezone preferences in your user account.

Time Position Orientation Groundspeed Altitude Reporting Facility
EDT Latitude Longitude Course Direction KTS MPH feet Rate Location/Type
Sat 07:34:05 AM 55.9640 37.3680 256° West 177 204 1,500  Level FlightAware ADS-B
Sat 07:34:20 AM 55.9610 37.3430 258° West 180 207 2,100 1,800 Climbing FlightAware ADS-B
Sat 07:34:45 AM 55.9560 37.3070 256° West 193 222 2,700 1,333 Climbing FlightAware ADS-B
Sat 07:35:05 AM 55.9510 37.2740 255° West 215 247 3,100 1,050 Climbing FlightAware ADS-B
Sat 07:35:25 AM 55.9450 37.2370 254° West 240 276 3,400 1,029 Climbing FlightAware ADS-B
Sat 07:35:40 AM 55.9430 37.2060 263° West 256 295 3,700 1,463 Climbing FlightAware ADS-B
Sat 07:36:06 AM 55.9350 37.1560 254° West 249 287 4,400 1,800 Climbing FlightAware ADS-B
Sat 07:36:30 AM 55.9540 37.1070 305° West 269 310 5,200 2,100 Climbing FlightAware ADS-B
Sat 07:36:46 AM 55.9590 37.0660 282° West 267 307 5,800 2,357 Climbing FlightAware ADS-B
Sat 07:36:58 AM 55.9620 37.0450 284° West 265 305 6,300 2,625 Climbing FlightAware ADS-B
Sat 07:37:18 AM 55.9740 37.0040 298° West 264 304 7,200 3,000 Climbing FlightAware ADS-B
Sat 07:37:38 AM 55.9850 36.9650 297° West 259 298 8,300 2,850 Climbing FlightAware ADS-B
Sat 07:37:58 AM 55.9950 36.9290 296° West 260 299 9,100 2,182 Climbing FlightAware ADS-B
Sat 07:38:22 AM 56.0090 36.8800 297° West 267 307 9,900 1,688 Climbing FlightAware ADS-B
Sat 07:39:02 AM 56.0320 36.7970 296° West 292 336 10,900 1,263 Climbing FlightAware ADS-B
Sat 07:39:38 AM 56.0530 36.7180 295° West 328 377 11,500 1,167 Climbing FlightAware ADS-B
Sat 07:40:14 AM 56.0790 36.6220 296° West 352 405 12,300 1,667 Climbing FlightAware ADS-B
Sat 07:40:50 AM 56.1030 36.5310 295° West 361 415 13,500 1,941 Climbing FlightAware ADS-B
Sat 07:41:22 AM 56.1270 36.4420 296° West 370 426 14,500 1,853 Climbing FlightAware ADS-B
Sat 07:41:58 AM 56.1550 36.3380 296° West 383 441 15,600 1,750 Climbing FlightAware ADS-B
Sat 07:42:34 AM 56.1830 36.2330 296° West 394 453 16,600 1,816 Climbing FlightAware ADS-B
Sat 07:43:14 AM 56.2140 36.1170 296° West 402 463 17,900 1,917 Climbing FlightAware ADS-B
Sat 07:43:46 AM 56.2400 36.0190 296° West 408 470 18,900 1,750 Climbing FlightAware ADS-B
Sat 07:44:26 AM 56.2730 35.8910 295° West 416 479 20,000 1,737 Climbing FlightAware ADS-B
Sat 07:45:02 AM 56.3020 35.7800 295° West 421 484 21,100 1,667 Climbing FlightAware ADS-B
Sat 07:45:38 AM 56.3320 35.6660 295° West 426 490 22,000 1,412 Climbing FlightAware ADS-B
Sat 07:46:10 AM 56.3580 35.5630 295° West 435 501 22,700 1,313 Climbing FlightAware ADS-B
Sat 07:46:42 AM 56.3860 35.4570 296° West 441 507 23,400 1,412 Climbing FlightAware ADS-B
Sat 07:47:18 AM 56.4240 35.3410 301° West 447 514 24,300 1,324 Climbing FlightAware ADS-B
Sat 07:47:50 AM 56.4630 35.2490 308° West 453 521 24,900 1,417 Climbing FlightAware ADS-B
Sat 07:48:30 AM 56.5250 35.1410 316° Northwest 456 525 26,000 1,333 Climbing FlightAware ADS-B
Sat 07:49:02 AM 56.5790 35.0720 325° Northwest 464 534 26,500 896 Climbing FlightAware ADS-B
Sat 07:49:37 AM 56.6490 35.0070 333° Northwest 474 545 27,000 917 Climbing FlightAware ADS-B
Sat 07:50:14 AM 56.7220 34.9630 342° North 482 555 27,600 986 Climbing FlightAware ADS-B
Sat 07:50:50 AM 56.8010 34.9400 351° North 491 565 28,200 917 Climbing FlightAware ADS-B
Sat 07:51:26 AM 56.8900 34.9400 360° North 497 572 28,700 917 Climbing FlightAware ADS-B
Sat 07:52:02 AM 56.9730 34.9480 North 501 577 29,300 1,216 Climbing FlightAware ADS-B
Sat 07:52:40 AM 57.0610 34.9520 North 497 572 30,200 1,397 Climbing FlightAware ADS-B
Sat 07:53:15 AM 57.1370 34.9550 North 491 565 31,000 1,280 Climbing FlightAware ADS-B
Sat 07:53:55 AM 57.2310 34.9580 North 488 562 31,800 1,114 Climbing FlightAware ADS-B
Sat 07:54:25 AM 57.2980 34.9590 360° North 487 560 32,300 1,015 Climbing FlightAware ADS-B
Sat 07:55:00 AM 57.3710 34.9620 North 486 559 32,900 1,029 Climbing FlightAware ADS-B
Sat 07:55:35 AM 57.4540 34.9640 North 485 558 33,500 825 Climbing FlightAware ADS-B
Sat 07:56:20 AM 57.5550 34.9630 360° North 482 555 34,000 375 Climbing FlightAware ADS-B
Sat 07:56:55 AM 57.6320 34.9430 352° North 480 552 34,000  Level FlightAware ADS-B
Sat 07:57:30 AM 57.7050 34.9080 346° North 474 545 34,000  Level FlightAware ADS-B
Sat 07:58:00 AM 57.7660 34.8650 339° North 468 539 34,000  Level FlightAware ADS-B
Sat 07:58:40 AM 57.8430 34.7900 333° Northwest 461 531 34,000  Level FlightAware ADS-B
Sat 07:59:15 AM 57.9040 34.7110 325° Northwest 456 525 34,000  Level FlightAware ADS-B
Sat 07:59:50 AM 57.9610 34.6310 323° Northwest 455 524 34,000  Level FlightAware ADS-B
Sat 08:00:30 AM 58.0290 34.5350 323° Northwest 453 521 34,000  Level FlightAware ADS-B
Sat 08:01:05 AM 58.0890 34.4510 324° Northwest 453 521 34,000  Level FlightAware ADS-B
Sat 08:01:40 AM 58.1470 34.3690 323° Northwest 454 522 34,000  Level FlightAware ADS-B
Sat 08:02:15 AM 58.1980 34.2940 322° Northwest 452 520 34,000  Level FlightAware ADS-B
Sat 08:02:50 AM 58.2600 34.1990 321° Northwest 454 522 34,000  Level FlightAware ADS-B
Sat 08:03:25 AM 58.3180 34.1090 321° Northwest 453 521 34,000  Level FlightAware ADS-B
Sat 08:04:00 AM 58.3700 34.0290 321° Northwest 454 522 34,000  Level FlightAware ADS-B
Sat 08:04:35 AM 58.4280 33.9390 321° Northwest 454 522 34,000  Level FlightAware ADS-B
Sat 08:05:17 AM 58.4940 33.8380 321° Northwest 455 524 34,000  Level FlightAware ADS-B
Sat 08:05:54 AM 58.5450 33.7580 321° Northwest 455 524 34,000  Level FlightAware ADS-B
Sat 08:06:30 AM 58.5950 33.6800 321° Northwest 455 524 34,000  Level FlightAware ADS-B
Sat 08:07:06 AM 58.6450 33.6020 321° Northwest 455 524 34,000  Level FlightAware ADS-B
Sat 08:07:55 AM 58.7130 33.4960 321° Northwest 455 524 34,000  Level FlightAware ADS-B
Sat 08:08:31 AM 58.7630 33.4180 321° Northwest 455 524 34,000  Level FlightAware ADS-B
Sat 08:09:08 AM 58.8150 33.3380 321° Northwest 455 524 34,000  Level FlightAware ADS-B
Sat 08:09:44 AM 58.8650 33.2590 321° Northwest 455 524 34,000  Level FlightAware ADS-B
Sat 08:10:20 AM 58.9150 33.1810 321° Northwest 455 524 34,000  Level FlightAware ADS-B
Sat 08:10:57 AM 58.9660 33.1000 321° Northwest 455 524 34,000  Level FlightAware ADS-B
Sat 08:11:33 AM 59.0170 33.0210 321° Northwest 455 524 34,000  Level FlightAware ADS-B
Sat 08:12:01 AM 59.1260 32.7000 304° West 34,000  Level FlightAware ADS-B
Sat 08:12:13 AM 59.1330 32.6860 314° West 460 529 34,000  Level FlightAware ADS-B
Sat 08:12:45 AM 59.1950 32.5620 314° West 459 528 34,000  Level FlightAware ADS-B
Sat 08:13:20 AM 59.2450 32.4620 314° West 457 526 34,000  Level FlightAware ADS-B
Sat 08:13:55 AM 59.2970 32.3590 315° West 456 525 34,000  Level FlightAware ADS-B
Sat 08:14:35 AM 59.3530 32.2460 314° West 457 526 34,000  Level FlightAware ADS-B
Sat 08:15:05 AM 59.4000 32.1480 313° West 454 522 34,000  Level FlightAware ADS-B
Sat 08:15:40 AM 59.4420 32.0320 305° West 448 516 34,000  Level FlightAware ADS-B
Sat 08:16:20 AM 59.4820 31.8920 299° West 441 507 34,000  Level FlightAware ADS-B
Sat 08:17:00 AM 59.5150 31.7460 294° West 440 506 34,000  Level FlightAware ADS-B
Sat 08:17:30 AM 59.5400 31.6360 294° West 439 505 34,000  Level FlightAware ADS-B
Sat 08:18:00 AM 59.5640 31.5240 293° West 438 504 34,000  Level FlightAware ADS-B
Sat 08:18:35 AM 59.5910 31.4000 293° West 437 503 34,000  Level FlightAware ADS-B
Sat 08:19:10 AM 59.6190 31.2680 293° West 436 502 34,000  Level FlightAware ADS-B
Sat 08:19:45 AM 59.6460 31.1430 293° West 435 501 34,000  Level FlightAware ADS-B
Sat 08:20:25 AM 59.6770 30.9960 293° West 436 502 34,000  Level FlightAware ADS-B
Sat 08:20:55 AM 59.7010 30.8840 293° West 436 502 34,000  Level FlightAware ADS-B
Sat 08:21:35 AM 59.7310 30.7380 292° West 437 503 34,000  Level FlightAware ADS-B
Sat 08:22:15 AM 59.7580 30.5930 290° West 434 499 34,000  Level FlightAware ADS-B
Sat 08:22:50 AM 59.7780 30.4540 286° West 432 497 34,000  Level FlightAware ADS-B
Sat 08:23:20 AM 59.7860 30.3360 278° West 428 493 34,000  Level FlightAware ADS-B
Sat 08:24:05 AM 59.7870 30.1700 271° West 424 488 34,000  Level FlightAware ADS-B
Sat 08:24:40 AM 59.7770 30.0300 262° West 420 483 34,000  Level FlightAware ADS-B
Sat 08:25:15 AM 59.7610 29.9000 256° West 421 484 34,000  Level FlightAware ADS-B
Sat 08:25:50 AM 59.7440 29.7660 256° West 421 484 34,000  Level FlightAware ADS-B
Sat 08:26:25 AM 59.7270 29.6370 255° West 421 484 34,000  Level FlightAware ADS-B
Sat 08:27:10 AM 59.7060 29.4700 256° West 423 487 34,000  Level FlightAware ADS-B
Sat 08:27:40 AM 59.6910 29.3560 255° West 424 488 34,000  Level FlightAware ADS-B
Sat 08:28:15 AM 59.6740 29.2270 255° West 424 488 34,000  Level FlightAware ADS-B
Sat 08:28:55 AM 59.6540 29.0750 255° West 423 487 34,000  Level FlightAware ADS-B
Sat 08:29:25 AM 59.6390 28.9650 255° West 423 487 34,000  Level FlightAware ADS-B
Sat 08:30:05 AM 59.6310 28.8110 264° West 429 494 34,000  Level FlightAware ADS-B
Sat 08:30:40 AM 59.6340 28.6740 273° West 433 498 34,000  Level FlightAware ADS-B
Sat 08:31:10 AM 59.6440 28.5630 280° West 439 505 34,000  Level FlightAware ADS-B
Sat 08:31:49 AM 59.6670 28.4070 286° West 440 506 34,000  Level FlightAware ADS-B
Sat 08:32:22 AM 59.6850 28.2770 285° West 440 506 34,000  Level FlightAware ADS-B
Sat 08:32:59 AM 59.7050 28.1350 286° West 440 506 34,000  Level FlightAware ADS-B
Sat 08:33:34 AM 59.7240 28.0000 286° West 441 507 34,000  Level FlightAware ADS-B
Sat 08:34:06 AM 59.7420 27.8730 286° West 440 506 34,000  Level FlightAware ADS-B
Sat 08:34:43 AM 59.7620 27.7310 286° West 440 506 34,000  Level FlightAware ADS-B
Sat 08:35:17 AM 59.7800 27.6020 286° West 441 507 34,000  Level FlightAware ADS-B
Sat 08:35:56 AM 59.8020 27.4430 285° West 442 509 34,000  Level FlightAware ADS-B
Sat 08:36:28 AM 59.8180 27.3220 285° West 442 509 34,000  Level FlightAware ADS-B
Sat 08:37:05 AM 59.8380 27.1760 285° West 441 507 34,000  Level FlightAware ADS-B
Sat 08:37:38 AM 59.8550 27.0460 285° West 442 509 34,000  Level FlightAware ADS-B
Sat 08:38:12 AM 59.8730 26.9130 285° West 443 510 34,000  Level FlightAware ADS-B
Sat 08:38:45 AM 59.8890 26.7860 284° West 444 511 34,000  Level FlightAware ADS-B
Sat 08:39:23 AM 59.9090 26.6350 285° West 442 509 34,000  Level FlightAware ADS-B
Sat 08:39:57 AM 59.9270 26.4970 285° West 441 507 34,000  Level FlightAware ADS-B
Sat 08:40:34 AM 59.9490 26.3590 288° West 447 514 34,000  Level FlightAware ADS-B
Sat 08:41:11 AM 59.9820 26.2170 295° West 454 522 34,000  Level FlightAware ADS-B
Sat 08:41:42 AM 60.0160 26.1020 301° West 459 528 34,000  Level FlightAware ADS-B
Sat 08:42:17 AM 60.0590 25.9820 306° West 457 526 34,000  Level FlightAware ADS-B
Sat 08:42:55 AM 60.0990 25.8470 301° West 456 525 34,000  Level FlightAware ADS-B
Sat 08:43:27 AM 60.1330 25.7310 301° West 456 525 34,000  Level FlightAware ADS-B
Sat 08:44:04 AM 60.1720 25.5970 300° West 455 524 34,000  Level FlightAware ADS-B
Sat 08:44:41 AM 60.2120 25.4610 301° West 454 522 34,000  Level FlightAware ADS-B
Sat 08:45:13 AM 60.2460 25.3470 301° West 454 522 34,000  Level FlightAware ADS-B
Sat 08:45:48 AM 60.2840 25.2190 301° West 453 521 34,000  Level FlightAware ADS-B
Sat 08:46:22 AM 60.3190 25.1000 301° West 452 520 34,000  Level FlightAware ADS-B
Sat 08:47:01 AM 60.3620 24.9530 301° West 452 520 34,000  Level FlightAware ADS-B
Sat 08:47:34 AM 60.3960 24.8360 301° West 450 518 34,000  Level FlightAware ADS-B
Sat 08:48:07 AM 60.4290 24.7200 300° West 450 518 34,000  Level FlightAware ADS-B
Sat 08:48:43 AM 60.4680 24.5860 301° West 449 517 34,000  Level FlightAware ADS-B
Sat 08:49:20 AM 60.5070 24.4490 300° West 448 516 34,000  Level FlightAware ADS-B
Sat 08:49:54 AM 60.5420 24.3250 300° West 447 514 34,000  Level FlightAware ADS-B
Sat 08:50:28 AM 60.5760 24.2050 300° West 447 514 34,000  Level FlightAware ADS-B
Sat 08:51:04 AM 60.6130 24.0720 300° West 445 512 34,000  Level FlightAware ADS-B
Sat 08:51:37 AM 60.6470 23.9530 300° West 445 512 34,000  Level FlightAware ADS-B
Sat 08:52:12 AM 60.6820 23.8280 300° West 445 512 34,000  Level FlightAware ADS-B
Sat 08:52:48 AM 60.7190 23.6920 299° West 446 513 34,000  Level FlightAware ADS-B
Sat 08:53:26 AM 60.7560 23.5580 300° West 446 513 34,000  Level FlightAware ADS-B
Sat 08:53:56 AM 60.7870 23.4450 299° West 447 514 34,000  Level FlightAware ADS-B
Sat 08:54:32 AM 60.8210 23.3170 299° West 448 516 34,000  Level FlightAware ADS-B
Sat 08:55:11 AM 60.8620 23.1690 300° West 447 514 34,000  Level FlightAware ADS-B
Sat 08:55:41 AM 60.8920 23.0570 299° West 448 516 34,000  Level FlightAware ADS-B
Sat 08:56:16 AM 60.9260 22.9270 298° West 447 514 34,000  Level FlightAware ADS-B
Sat 08:56:51 AM 60.9600 22.7990 299° West 448 516 34,000  Level FlightAware ADS-B
Sat 08:57:26 AM 60.9960 22.6650 299° West 450 518 34,000  Level FlightAware ADS-B
Sat 08:58:01 AM 61.0280 22.5420 298° West 449 517 34,000  Level FlightAware ADS-B
Sat 08:58:37 AM 61.0640 22.4040 298° West 450 518 34,000  Level FlightAware ADS-B
Sat 08:59:12 AM 61.1010 22.2620 298° West 450 518 34,000  Level FlightAware ADS-B
Sat 08:59:49 AM 61.1330 22.1350 298° West 451 519 34,000  Level FlightAware ADS-B
Sat 09:00:24 AM 61.1690 21.9970 298° West 452 520 34,000  Level FlightAware ADS-B
Sat 09:00:54 AM 61.1980 21.8830 298° West 452 520 34,000  Level FlightAware ADS-B
Sat 09:01:34 AM 61.2360 21.7300 297° West 452 520 34,000  Level FlightAware ADS-B
Sat 09:02:09 AM 61.2710 21.5920 298° West 453 521 34,000  Level FlightAware ADS-B
Sat 09:02:49 AM 61.3110 21.4320 298° West 453 521 34,000  Level FlightAware ADS-B
Sat 09:03:19 AM 61.3380 21.3230 297° West 452 520 34,000  Level FlightAware ADS-B
Sat 09:03:59 AM 61.3740 21.1770 297° West 450 518 34,000  Level FlightAware ADS-B
Sat 09:04:41 AM 61.4170 21.0030 297° West 449 517 34,000  Level FlightAware ADS-B
Sat 09:05:19 AM 61.4500 20.8650 297° West 448 516 34,000  Level FlightAware ADS-B
Sat 09:05:52 AM 61.4830 20.7300 297° West 449 517 34,000  Level FlightAware ADS-B
Sat 09:06:23 AM 61.5100 20.6200 297° West 447 514 34,000  Level FlightAware ADS-B
Sat 09:07:02 AM 61.5470 20.4630 296° West 448 516 34,000  Level FlightAware ADS-B
Sat 09:07:38 AM 61.5800 20.3230 296° West 447 514 34,000  Level FlightAware ADS-B
Sat 09:08:15 AM 61.6140 20.1790 296° West 448 516 34,000  Level FlightAware ADS-B
Sat 09:08:46 AM 61.6420 20.0600 296° West 448 516 34,000  Level FlightAware ADS-B
Sat 09:09:23 AM 61.6750 19.9170 296° West 449 517 34,000  Level FlightAware ADS-B
Sat 09:09:59 AM 61.7110 19.7650 297° West 449 517 34,000  Level FlightAware ADS-B
Sat 09:10:29 AM 61.7370 19.6510 296° West 448 516 34,000  Level FlightAware ADS-B
Sat 09:11:06 AM 61.7690 19.5100 296° West 445 512 34,000  Level FlightAware ADS-B
Sat 09:11:47 AM 61.8030 19.3730 298° West 449 517 34,000  Level FlightAware ADS-B
Sat 09:12:26 AM 61.8460 19.2000 298° West 450 518 34,000  Level FlightAware ADS-B
Sat 09:13:01 AM 61.8790 19.0650 297° West 451 519 34,000  Level FlightAware ADS-B
Sat 09:13:31 AM 61.9090 18.9420 297° West 453 521 34,000  Level FlightAware ADS-B
Sat 09:14:06 AM 61.9420 18.8070 298° West 454 522 34,000  Level FlightAware ADS-B
Sat 09:14:42 AM 61.9760 18.6640 297° West 455 524 34,000  Level FlightAware ADS-B
Sat 09:15:21 AM 62.0130 18.5090 297° West 451 519 34,000  Level FlightAware ADS-B
Sat 09:15:52 AM 62.0420 18.3840 296° West 451 519 34,000  Level FlightAware ADS-B
Sat 09:16:31 AM 62.0790 18.2260 297° West 453 521 34,000  Level FlightAware ADS-B
Sat 09:17:02 AM 62.1090 18.0980 297° West 455 524 34,000  Level FlightAware ADS-B
Sat 09:17:36 AM 62.1420 17.9590 297° West 456 525 34,000  Level FlightAware ADS-B
Sat 09:18:12 AM 62.1740 17.8200 296° West 457 526 34,000  Level FlightAware ADS-B
Sat 09:18:46 AM 62.2060 17.6840 297° West 465 535 34,000  Level FlightAware ADS-B
Sat 09:19:27 AM 62.2670 17.5410 313° West 478 550 34,000  Level FlightAware ADS-B
Sat 09:19:56 AM 62.3150 17.4400 316° Northwest 477 549 34,000  Level FlightAware ADS-B
Sat 09:20:32 AM 62.3710 17.3210 315° West 476 548 34,000  Level FlightAware ADS-B
Sat 09:21:11 AM 62.4330 17.1880 315° West 480 552 34,000  Level FlightAware ADS-B
Sat 09:21:42 AM 62.4810 17.0860 316° Northwest 479 551 34,000  Level FlightAware ADS-B
Sat 09:22:16 AM 62.5350 16.9700 315° West 480 552 34,000  Level FlightAware ADS-B
Sat 09:22:52 AM 62.5910 16.8480 315° West 481 554 34,000  Level FlightAware ADS-B
Sat 09:23:31 AM 62.6530 16.7150 315° West 480 552 34,000  Level FlightAware ADS-B
Sat 09:24:02 AM 62.7000 16.6110 315° West 480 552 34,000  Level FlightAware ADS-B
Sat 09:24:41 AM 62.7610 16.4760 315° West 479 551 34,000  Level FlightAware ADS-B
Sat 09:25:12 AM 62.8090 16.3710 315° West 478 550 34,000  Level FlightAware ADS-B
Sat 09:25:51 AM 62.8710 16.2320 314° West 478 550 34,000  Level FlightAware ADS-B
Sat 09:26:22 AM 62.9190 16.1260 315° West 478 550 34,000  Level FlightAware ADS-B
Sat 09:26:57 AM 62.9730 16.0040 314° West 473 544 34,000  Level FlightAware ADS-B
Sat 09:27:35 AM 63.0320 15.8710 314° West 479 551 34,000  Level FlightAware ADS-B
Sat 09:28:11 AM 63.0880 15.7430 314° West 480 552 34,000  Level FlightAware ADS-B
Sat 09:28:47 AM 63.1420 15.6170 314° West 480 552 34,000  Level FlightAware ADS-B
Sat 09:29:19 AM 63.1910 15.5050 314° West 478 550 34,000  Level FlightAware ADS-B
Sat 09:29:51 AM 63.2410 15.3900 314° West 477 549 34,000  Level FlightAware ADS-B
Sat 09:30:27 AM 63.2940 15.2670 314° West 476 548 34,000  Level FlightAware ADS-B
Sat 09:31:01 AM 63.3460 15.1440 313° West 477 549 34,000  Level FlightAware ADS-B
Sat 09:31:41 AM 63.4070 15.0000 313° West 478 550 34,000  Level FlightAware ADS-B
Sat 09:32:15 AM 63.4570 14.8810 313° West 477 549 34,000  Level FlightAware ADS-B
Sat 09:32:51 AM 63.5120 14.7500 313° West 478 550 34,000  Level FlightAware ADS-B
Sat 09:33:27 AM 63.5660 14.6220 313° West 477 549 34,000  Level FlightAware ADS-B
Sat 09:33:59 AM 63.6140 14.5060 313° West 476 548 34,000  Level FlightAware ADS-B
Sat 09:34:33 AM 63.6650 14.3820 313° West 475 547 34,000  Level FlightAware ADS-B
Sat 09:35:11 AM 63.7190 14.2500 313° West 474 545 34,000  Level FlightAware ADS-B
Sat 09:35:47 AM 63.7750 14.1140 313° West 474 545 34,000  Level FlightAware ADS-B
Sat 09:36:20 AM 63.8230 13.9940 312° West 474 545 34,000  Level FlightAware ADS-B
Sat 09:36:56 AM 63.8760 13.8630 313° West 474 545 34,000  Level FlightAware ADS-B
Sat 09:37:28 AM 63.9230 13.7450 312° West 472 543 34,000  Level FlightAware ADS-B
Sat 09:38:05 AM 63.9760 13.6110 312° West 471 542 34,000  Level FlightAware ADS-B
Sat 09:38:38 AM 64.0260 13.4860 312° West 470 541 34,000  Level FlightAware ADS-B
Sat 09:39:16 AM 64.0810 13.3450 312° West 471 542 34,000  Level FlightAware ADS-B
Sat 09:39:49 AM 64.1280 13.2270 312° West 471 542 34,000  Level FlightAware ADS-B
Sat 09:40:26 AM 64.1810 13.0890 311° West 470 541 34,000  Level FlightAware ADS-B
Sat 09:40:58 AM 64.2270 12.9700 312° West 469 540 34,000  Level FlightAware ADS-B
Sat 09:41:34 AM 64.2780 12.8360 311° West 468 539 34,000  Level FlightAware ADS-B
Sat 09:42:10 AM 64.3300 12.7010 312° West 468 539 34,000  Level FlightAware ADS-B
Sat 09:42:42 AM 64.3740 12.5850 311° West 466 536 34,000  Level FlightAware ADS-B
Sat 09:43:16 AM 64.4240 12.4520 311° West 465 535 34,000  Level FlightAware ADS-B
Sat 09:43:56 AM 64.4800 12.3040 311° West 464 534 34,000  Level FlightAware ADS-B
Sat 09:44:28 AM 64.5250 12.1830 311° West 464 534 34,000  Level FlightAware ADS-B
Sat 09:45:02 AM 64.5710 12.0560 310° West 465 535 34,000  Level FlightAware ADS-B
Sat 09:45:40 AM 64.6250 11.9100 311° West 467 537 34,000  Level FlightAware ADS-B
Sat 09:46:16 AM 64.6760 11.7720 311° West 467 537 34,000  Level FlightAware ADS-B
Sat 09:46:52 AM 64.7260 11.6320 310° West 467 537 34,000  Level FlightAware ADS-B
Sat 09:47:24 AM 64.7670 11.5200 311° West 466 536 34,000  Level FlightAware ADS-B
Sat 09:48:00 AM 64.8200 11.3740 311° West 466 536 34,000  Level FlightAware ADS-B
Sat 09:48:34 AM 64.8670 11.2400 310° West 465 535 34,000  Level FlightAware ADS-B
Sat 09:49:10 AM 64.9170 11.1010 310° West 465 535 34,000  Level FlightAware ADS-B
Sat 09:49:46 AM 64.9650 10.9630 309° West 467 537 34,000  Level FlightAware ADS-B
Sat 09:50:18 AM 65.0080 10.8400 310° West 468 539 34,000  Level FlightAware ADS-B
Sat 09:50:54 AM 65.0590 10.6940 310° West 469 540 34,000  Level FlightAware ADS-B
Sat 09:51:26 AM 65.1030 10.5670 309° West 470 541 34,000  Level FlightAware ADS-B
Sat 09:52:04 AM 65.1550 10.4150 309° West 471 542 34,000  Level FlightAware ADS-B
Sat 09:52:38 AM 65.2020 10.2800 310° West 471 542 34,000  Level FlightAware ADS-B
Sat 09:53:14 AM 65.2510 10.1350 309° West 471 542 34,000  Level FlightAware ADS-B
Sat 09:53:50 AM 65.3000 9.9880 309° West 473 544 34,000  Level FlightAware ADS-B
Sat 09:54:24 AM 65.3470 9.8490 309° West 472 543 34,000  Level FlightAware ADS-B
Sat 09:55:00 AM 65.3940 9.7080 309° West 473 544 34,000  Level FlightAware ADS-B
Sat 09:55:36 AM 65.4450 9.5540 309° West 474 545 34,000  Level FlightAware ADS-B
Sat 09:56:08 AM 65.4880 9.4220 308° West 474 545 34,000  Level FlightAware ADS-B
Sat 09:56:46 AM 65.5380 9.2680 308° West 475 547 34,000  Level FlightAware ADS-B
Sat 09:57:18 AM 65.5820 9.1340 308° West 475 547 34,000  Level FlightAware ADS-B
Sat 09:57:54 AM 65.6310 8.9820 308° West 476 548 34,000  Level FlightAware ADS-B
Sat 09:58:30 AM 65.6790 8.8340 308° West 475 547 34,000  Level FlightAware ADS-B
Sat 09:59:09 AM 65.7220 8.6930 307° West 475 547 34,000  Level FlightAware ADS-B
Sat 09:59:45 AM 65.7630 8.5620 307° West 475 547 34,000  Level FlightAware ADS-B
Sat 10:00:21 AM 65.8030 8.4310 307° West 475 547 34,000  Level FlightAware ADS-B
Sat 10:00:58 AM 65.8450 8.2970 307° West 475 547 34,000  Level FlightAware ADS-B
Sat 10:01:34 AM 65.8850 8.1650 307° West 475 547 34,000  Level FlightAware ADS-B
Sat 10:02:10 AM 65.9250 8.0340 307° West 475 547 34,000  Level FlightAware ADS-B
Sat 10:02:47 AM 65.9670 7.8980 307° West 475 547 34,000  Level FlightAware ADS-B
Sat 10:03:24 AM 66.0090 7.7630 307° West 475 547 34,000  Level FlightAware ADS-B
Sat 10:04:00 AM 66.0490 7.6300 307° West 475 547 34,000  Level FlightAware ADS-B
Sat 10:04:36 AM 66.0900 7.4980 308° West 475 547 34,000  Level FlightAware ADS-B
Sat 10:05:12 AM 66.1300 7.3650 307° West 475 547 34,000  Level FlightAware ADS-B
Sat 10:05:48 AM 66.1700 7.2320 307° West 475 547 34,000  Level FlightAware ADS-B
Sat 10:06:24 AM 66.2110 7.0990 307° West 475 547 34,000  Level FlightAware ADS-B
Sat 10:07:01 AM 66.2520 6.9620 307° West 475 547 34,000  Level FlightAware ADS-B
Sat 10:07:49 AM 66.3060 6.7840 307° West 475 547 34,000  Level FlightAware ADS-B
Sat 10:08:25 AM 66.3470 6.6510 308° West 475 547 34,000  Level FlightAware ADS-B
Sat 10:11:00 AM 66.4187 5.4175 279° West  Level Estimated
Sat 10:12:00 AM 66.4438 4.9382 278° West  Level Estimated
Sat 10:13:00 AM 66.4675 4.4580 277° West  Level Estimated
Sat 10:14:00 AM 66.4897 3.9769 277° West  Level Estimated
Sat 10:15:00 AM 66.5104 3.4949 276° West  Level Estimated
Sat 10:16:00 AM 66.5296 3.0122 276° West  Level Estimated
Sat 10:17:00 AM 66.5474 2.5288 275° West  Level Estimated
Sat 10:18:00 AM 66.5636 2.0447 275° West  Level Estimated
Sat 10:19:00 AM 66.5784 1.5600 275° West  Level Estimated
Sat 10:20:00 AM 66.5916 1.0747 274° West  Level Estimated
Sat 10:21:00 AM 66.6034 0.5890 274° West  Level Estimated
Sat 10:22:00 AM 66.6136 0.1028 273° West  Level Estimated
Sat 10:23:00 AM 66.6224 -0.3837 273° West  Level Estimated
Sat 10:24:00 AM 66.6296 -0.8706 272° West  Level Estimated
Sat 10:25:00 AM 66.6353 -1.3577 272° West  Level Estimated
Sat 10:26:00 AM 66.6396 -1.8450 271° West  Level Estimated
Sat 10:27:00 AM 66.6423 -2.3325 271° West  Level Estimated
Sat 10:28:00 AM 66.6435 -2.8200 271° West  Level Estimated
Sat 10:29:00 AM 66.6432 -3.3075 270° West  Level Estimated
Sat 10:30:00 AM 66.6414 -3.7950 270° West  Level Estimated
Sat 10:31:00 AM 66.6381 -4.2824 269° West  Level Estimated
Sat 10:32:00 AM 66.6332 -4.7697 269° West  Level Estimated
Sat 10:33:00 AM 66.6269 -5.2567 268° West  Level Estimated
Sat 10:34:00 AM 66.6190 -5.7434 268° West  Level Estimated
Sat 10:35:00 AM 66.6097 -6.2298 267° West  Level Estimated
Sat 10:36:00 AM 66.5988 -6.7158 267° West  Level Estimated
Sat 10:37:00 AM 66.5865 -7.2014 267° West  Level Estimated
Sat 10:38:00 AM 66.5726 -7.6864 266° West  Level Estimated
Sat 10:39:00 AM 66.5573 -8.1709 266° West  Level Estimated
Sat 10:40:00 AM 66.5404 -8.6547 265° West  Level Estimated
Sat 10:41:00 AM 66.5221 -9.1379 265° West  Level Estimated
Sat 10:42:00 AM 66.5023 -9.6203 264° West  Level Estimated
Sat 10:43:00 AM 66.4810 -10.1019 264° West  Level Estimated
Sat 10:44:00 AM 66.4582 -10.5827 263° West  Level Estimated
Sat 10:45:00 AM 66.4339 -11.0626 263° West  Level Estimated
Sat 10:46:00 AM 66.4082 -11.5415 263° West  Level Estimated
Sat 10:47:00 AM 66.3810 -12.0194 262° West  Level Estimated
Sat 10:48:00 AM 66.3524 -12.4962 262° West  Level Estimated
Sat 10:49:00 AM 66.3223 -12.9719 261° West  Level Estimated
Sat 10:50:00 AM 66.2907 -13.4465 261° West  Level Estimated
Sat 10:51:00 AM 66.2577 -13.9198 260° West  Level Estimated
Sat 10:52:00 AM 66.2233 -14.3919 260° West  Level Estimated
Sat 10:53:00 AM 66.1874 -14.8626 260° West  Level Estimated
Sat 10:54:00 AM 66.1501 -15.3321 259° West  Level Estimated
Sat 10:55:00 AM 66.1114 -15.8000 259° West  Level Estimated
Sat 10:56:00 AM 66.0713 -16.2666 258° West  Level Estimated
Sat 10:57:00 AM 66.0297 -16.7316 258° West  Level Estimated
Sat 10:58:00 AM 65.9868 -17.1951 257° West  Level Estimated
Sat 10:59:00 AM 65.9425 -17.6570 257° West  Level Estimated
Sat 11:00:00 AM 65.8968 -18.1173 257° West  Level Estimated
Sat 11:01:00 AM 65.8497 -18.5760 256° West  Level Estimated
Sat 11:02:00 AM 65.8013 -19.0329 256° West  Level Estimated
Sat 11:03:00 AM 65.7515 -19.4881 255° West  Level Estimated
Sat 11:04:00 AM 65.7004 -19.9415 255° West  Level Estimated
Sat 11:05:00 AM 65.6479 -20.3931 254° West  Level Estimated
Sat 11:06:00 AM 65.5941 -20.8429 254° West  Level Estimated
Sat 11:07:00 AM 65.5390 -21.2908 254° West  Level Estimated
Sat 11:08:00 AM 65.4825 -21.7367 253° West  Level Estimated
Sat 11:09:00 AM 65.4248 -22.1807 253° West  Level Estimated
Sat 11:10:00 AM 65.3657 -22.6228 252° West  Level Estimated
Sat 11:11:00 AM 65.3054 -23.0628 252° West  Level Estimated
Sat 11:12:00 AM 65.2438 -23.5008 252° West  Level Estimated
Sat 11:13:00 AM 65.1809 -23.9368 251° West  Level Estimated
Sat 11:14:00 AM 65.1168 -24.3707 251° West  Level Estimated
Sat 11:15:00 AM 65.0514 -24.8024 250° West  Level Estimated
Sat 11:16:00 AM 64.9847 -25.2320 250° West  Level Estimated
Sat 11:17:00 AM 64.9169 -25.6595 250° West  Level Estimated
Sat 11:18:00 AM 64.8478 -26.0848 249° West  Level Estimated
Sat 11:19:00 AM 64.7775 -26.5079 249° West  Level Estimated
Sat 11:20:00 AM 64.7061 -26.9288 248° West  Level Estimated
Sat 11:21:00 AM 64.6334 -27.3474 248° West  Level Estimated
Sat 11:22:00 AM 64.5596 -27.7638 248° West  Level Estimated
Sat 11:23:00 AM 64.4846 -28.1779 247° West  Level Estimated
Sat 11:24:00 AM 64.4084 -28.5898 247° West  Level Estimated
Sat 11:25:00 AM 64.3311 -28.9993 247° West  Level Estimated
Sat 11:26:00 AM 64.2526 -29.4065 246° West  Level Estimated
Sat 11:27:00 AM 64.1731 -29.8114 246° West  Level Estimated
Sat 11:28:00 AM 64.0924 -30.2140 246° West  Level Estimated
Sat 11:29:00 AM 64.0106 -30.6143 245° Southwest  Level Estimated
Sat 11:30:00 AM 63.9277 -31.0121 245° Southwest  Level Estimated
Sat 11:31:00 AM 63.8437 -31.4076 244° Southwest  Level Estimated
Sat 11:32:00 AM 63.7587 -31.8008 244° Southwest  Level Estimated
Sat 11:33:00 AM 63.6726 -32.1916 244° Southwest  Level Estimated
Sat 11:34:00 AM 63.5854 -32.5800 243° Southwest  Level Estimated
Sat 11:35:00 AM 63.4972 -32.9660 243° Southwest  Level Estimated
Sat 11:36:00 AM 63.4080 -33.3496 243° Southwest  Level Estimated
Sat 11:37:00 AM 63.3177 -33.7308 242° Southwest  Level Estimated
Sat 11:38:00 AM 63.2264 -34.1097 242° Southwest  Level Estimated
Sat 11:39:00 AM 63.1342 -34.4861 242° Southwest  Level Estimated
Sat 11:40:00 AM 63.0409 -34.8601 241° Southwest  Level Estimated
Sat 11:41:00 AM 62.9467 -35.2318 241° Southwest  Level Estimated
Sat 11:42:00 AM 62.8514 -35.6010 241° Southwest  Level Estimated
Sat 11:43:00 AM 62.7553 -35.9678 240° Southwest  Level Estimated
Sat 11:44:00 AM 62.6581 -36.3323 240° Southwest  Level Estimated
Sat 11:45:00 AM 62.5601 -36.6943 240° Southwest  Level Estimated
Sat 11:46:00 AM 62.4611 -37.0540 239° Southwest  Level Estimated
Sat 11:47:00 AM 62.3612 -37.4113 239° Southwest  Level Estimated
Sat 11:48:00 AM 62.2604 -37.7662 239° Southwest  Level Estimated
Sat 11:49:00 AM 62.1586 -38.1187 238° Southwest  Level Estimated
Sat 11:50:00 AM 62.0560 -38.4688 238° Southwest  Level Estimated
Sat 11:51:00 AM 61.9525 -38.8166 238° Southwest  Level Estimated
Sat 11:52:00 AM 61.8482 -39.1620 237° Southwest  Level Estimated
Sat 11:53:00 AM 61.7430 -39.5051 237° Southwest  Level Estimated
Sat 11:54:00 AM 61.6369 -39.8458 237° Southwest  Level Estimated
Sat 11:55:00 AM 61.5300 -40.1842 237° Southwest  Level Estimated
Sat 11:56:00 AM 61.4222 -40.5202 236° Southwest  Level Estimated
Sat 11:57:00 AM 61.3137 -40.8540 236° Southwest  Level Estimated
Sat 11:58:00 AM 61.2043 -41.1854 236° Southwest  Level Estimated
Sat 11:59:00 AM 61.0941 -41.5145 235° Southwest  Level Estimated
Sat 12:00:00 PM 60.9831 -41.8413 235° Southwest  Level Estimated
Sat 12:01:00 PM 60.8714 -42.1658 235° Southwest  Level Estimated
Sat 12:02:00 PM 60.7588 -42.4881 235° Southwest  Level Estimated
Sat 12:03:00 PM 60.6455 -42.8081 234° Southwest  Level Estimated
Sat 12:04:00 PM 60.5314 -43.1259 234° Southwest  Level Estimated
Sat 12:05:00 PM 60.4166 -43.4414 234° Southwest  Level Estimated
Sat 12:06:00 PM 60.3011 -43.7547 233° Southwest  Level Estimated
Sat 12:07:00 PM 60.1848 -44.0658 233° Southwest  Level Estimated
Sat 12:08:00 PM 60.0678 -44.3746 233° Southwest  Level Estimated
Sat 12:09:00 PM 59.9501 -44.6813 233° Southwest  Level Estimated
Sat 12:10:00 PM 59.8316 -44.9858 232° Southwest  Level Estimated
Sat 12:11:00 PM 59.7125 -45.2882 232° Southwest  Level Estimated
Sat 12:12:00 PM 59.5927 -45.5883 232° Southwest  Level Estimated
Sat 12:13:00 PM 59.4722 -45.8864 232° Southwest  Level Estimated
Sat 12:14:00 PM 59.3510 -46.1823 231° Southwest  Level Estimated
Sat 12:15:00 PM 59.2291 -46.4761 231° Southwest  Level Estimated
Sat 12:16:00 PM 59.1067 -46.7679 231° Southwest  Level Estimated
Sat 12:17:00 PM 58.9835 -47.0575 231° Southwest  Level Estimated
Sat 12:18:00 PM 58.8597 -47.3451 230° Southwest  Level Estimated
Sat 12:19:00 PM 58.7819 -47.5241 230° Southwest  Level Estimated
Sat 12:20:00 PM 58.7038 -47.7023 230° Southwest  Level Estimated
Sat 12:21:00 PM 58.6255 -47.8797 230° Southwest  Level Estimated
Sat 12:22:00 PM 58.5469 -48.0563 230° Southwest  Level Estimated
Sat 12:23:00 PM 58.4681 -48.2321 229° Southwest  Level Estimated
Sat 12:24:00 PM 58.3890 -48.4072 229° Southwest  Level Estimated
Sat 12:25:00 PM 58.3097 -48.5814 229° Southwest  Level Estimated
Sat 12:26:00 PM 58.2302 -48.7549 229° Southwest  Level Estimated
Sat 12:27:00 PM 58.1505 -48.9276 229° Southwest  Level Estimated
Sat 12:28:00 PM 58.0705 -49.0995 229° Southwest  Level Estimated
Sat 12:29:00 PM 57.9903 -49.2707 229° Southwest  Level Estimated
Sat 12:30:00 PM 57.9098 -49.4411 228° Southwest  Level Estimated
Sat 12:31:00 PM 57.8291 -49.6107 228° Southwest  Level Estimated
Sat 12:32:00 PM 57.7482 -49.7795 228° Southwest  Level Estimated
Sat 12:33:00 PM 57.6671 -49.9476 228° Southwest  Level Estimated
Sat 12:34:00 PM 57.5858 -50.1150 228° Southwest  Level Estimated
Sat 12:35:00 PM 57.5042 -50.2816 228° Southwest  Level Estimated
Sat 12:36:00 PM 57.4224 -50.4475 228° Southwest  Level Estimated
Sat 12:37:00 PM 57.3404 -50.6126 227° Southwest  Level Estimated
Sat 12:38:00 PM 57.2582 -50.7770 227° Southwest  Level Estimated
Sat 12:39:00 PM 57.1758 -50.9407 227° Southwest  Level Estimated
Sat 12:40:00 PM 57.0931 -51.1036 227° Southwest  Level Estimated
Sat 12:41:00 PM 57.0103 -51.2658 227° Southwest  Level Estimated
Sat 12:42:00 PM 56.9272 -51.4273 227° Southwest  Level Estimated
Sat 12:43:00 PM 56.8439 -51.5880 227° Southwest  Level Estimated
Sat 12:44:00 PM 56.7605 -51.7481 226° Southwest  Level Estimated
Sat 12:45:00 PM 56.6768 -51.9074 226° Southwest  Level Estimated
Sat 12:46:00 PM 56.5929 -52.0661 226° Southwest  Level Estimated
Sat 12:47:00 PM 56.5088 -52.2240 226° Southwest  Level Estimated
Sat 12:48:00 PM 56.4245 -52.3812 226° Southwest  Level Estimated
Sat 12:49:00 PM 56.3401 -52.5377 226° Southwest  Level Estimated
Sat 12:50:00 PM 56.2554 -52.6936 226° Southwest  Level Estimated
Sat 12:51:00 PM 56.1705 -52.8487 226° Southwest  Level Estimated
Sat 12:52:00 PM 56.0855 -53.0032 225° Southwest  Level Estimated
Sat 12:53:00 PM 56.0002 -53.1570 225° Southwest  Level Estimated
Sat 12:54:00 PM 55.9147 -53.3101 225° Southwest  Level Estimated
Sat 12:55:00 PM 55.8291 -53.4625 225° Southwest  Level Estimated
Sat 12:56:00 PM 55.7433 -53.6143 225° Southwest  Level Estimated
Sat 12:57:00 PM 55.6573 -53.7653 225° Southwest  Level Estimated
Sat 12:58:00 PM 55.5711 -53.9158 225° Southwest  Level Estimated
Sat 12:59:00 PM 55.4847 -54.0655 225° Southwest  Level Estimated
Sat 01:00:00 PM 55.3982 -54.2146 224° Southwest  Level Estimated
Sat 01:01:00 PM 55.3114 -54.3631 224° Southwest  Level Estimated
Sat 01:02:00 PM 55.2245 -54.5109 224° Southwest  Level Estimated
Sat 01:03:00 PM 55.1374 -54.6581 224° Southwest  Level Estimated
Sat 01:04:00 PM 55.0501 -54.8046 224° Southwest  Level Estimated
Sat 01:05:00 PM 54.9627 -54.9505 224° Southwest  Level Estimated
Sat 01:06:00 PM 54.8750 -55.0958 224° Southwest  Level Estimated
Sat 01:07:00 PM 54.7873 -55.2404 224° Southwest  Level Estimated
Sat 01:08:00 PM 54.6993 -55.3844 223° Southwest  Level Estimated
Sat 01:09:00 PM 54.6111 -55.5277 223° Southwest  Level Estimated
Sat 01:10:00 PM 54.5228 -55.6705 223° Southwest  Level Estimated
Sat 01:11:00 PM 54.4344 -55.8126 223° Southwest  Level Estimated
Sat 01:12:00 PM 54.3457 -55.9542 223° Southwest  Level Estimated
Sat 01:13:00 PM 54.2569 -56.0951 223° Southwest  Level Estimated
Sat 01:14:00 PM 54.1679 -56.2354 223° Southwest  Level Estimated
Sat 01:15:00 PM 54.0788 -56.3751 223° Southwest  Level Estimated
Sat 01:15:28 PM 62.4410 -48.7810 223° Southwest 448 516 34,000  Level FlightAware ADS-B
Sat 01:16:00 PM 53.9895 -56.5142 223° Southwest  Level Estimated
Sat 01:16:05 PM 62.3980 -48.8990 232° Southwest 449 517 34,000  Level FlightAware ADS-B
Sat 01:16:42 PM 62.3580 -49.0100 232° Southwest 449 517 34,000  Level FlightAware ADS-B
Sat 01:17:17 PM 62.3040 -49.1670 234° Southwest 451 519 34,000  Level FlightAware ADS-B
Sat 01:17:55 PM 62.2620 -49.2810 232° Southwest 451 519 34,000  Level FlightAware ADS-B
Sat 01:18:30 PM 62.2090 -49.4300 233° Southwest 451 519 34,000  Level FlightAware ADS-B
Sat 01:19:02 PM 62.1680 -49.5420 232° Southwest 451 519 34,000  Level FlightAware ADS-B
Sat 01:19:47 PM 62.1160 -49.6850 232° Southwest 452 520 34,000  Level FlightAware ADS-B
Sat 01:20:23 PM 62.0770 -49.7930 232° Southwest 452 520 34,000  Level FlightAware ADS-B
Sat 01:21:01 PM 62.0350 -49.9070 232° Southwest 452 520 34,000  Level FlightAware ADS-B
Sat 01:21:36 PM 61.9750 -50.0760 233° Southwest 448 516 34,000  Level FlightAware ADS-B
Sat 01:22:12 PM 61.9310 -50.2130 236° Southwest 445 512 34,000  Level FlightAware ADS-B
Sat 01:22:42 PM 61.8970 -50.3200 236° Southwest 444 511 34,000  Level FlightAware ADS-B
Sat 01:23:18 PM 61.8540 -50.4500 235° Southwest 443 510 34,000  Level FlightAware ADS-B
Sat 01:24:04 PM 61.8070 -50.5960 236° Southwest 444 511 34,000  Level FlightAware ADS-B
Sat 01:24:38 PM 61.7730 -50.6990 235° Southwest 444 511 34,000  Level FlightAware ADS-B
Sat 01:25:10 PM 61.7250 -50.8430 235° Southwest 442 509 34,000  Level FlightAware ADS-B
Sat 01:25:55 PM 61.6760 -50.9870 234° Southwest 442 509 34,000  Level FlightAware ADS-B
Sat 01:26:32 PM 61.6380 -51.0970 234° Southwest 442 509 34,000  Level FlightAware ADS-B
Sat 01:27:06 PM 61.6040 -51.1970 234° Southwest 442 509 34,000  Level FlightAware ADS-B
Sat 01:27:42 PM 61.5670 -51.3040 234° Southwest 442 509 34,000  Level FlightAware ADS-B
Sat 01:28:19 PM 61.5290 -51.4130 234° Southwest 442 509 34,000  Level FlightAware ADS-B
Sat 01:28:56 PM 61.4910 -51.5220 234° Southwest 442 509 34,000  Level FlightAware ADS-B
Sat 01:29:30 PM 61.4560 -51.6220 234° Southwest 442 509 34,000  Level FlightAware ADS-B
Sat 01:30:28 PM 61.3590 -51.9190 236° Southwest 424 488 34,000  Level FlightAware ADS-B
Sat 01:31:05 PM 61.3230 -52.0230 234° Southwest 424 488 34,000  Level FlightAware ADS-B
Sat 01:31:41 PM 61.2880 -52.1240 234° Southwest 424 488 34,000  Level FlightAware ADS-B
Sat 01:32:17 PM 61.2520 -52.2250 233° Southwest 424 488 34,000  Level FlightAware ADS-B
Sat 01:32:53 PM 61.2170 -52.3260 234° Southwest 424 488 34,000  Level FlightAware ADS-B
Sat 01:33:29 PM 61.1820 -52.4260 234° Southwest 424 488 34,000  Level FlightAware ADS-B
Sat 01:34:05 PM 61.1460 -52.5270 234° Southwest 424 488 34,000  Level FlightAware ADS-B
Sat 01:34:41 PM 61.1110 -52.6280 234° Southwest 424 488 34,000  Level FlightAware ADS-B
Sat 01:35:17 PM 61.0330 -52.8360 232° Southwest 408 470 34,000  Level FlightAware ADS-B
Sat 01:35:53 PM 60.9980 -52.9310 233° Southwest 408 470 34,000  Level FlightAware ADS-B
Sat 01:36:29 PM 60.9640 -53.0260 234° Southwest 408 470 34,000  Level FlightAware ADS-B
Sat 01:37:05 PM 60.9290 -53.1210 233° Southwest 408 470 34,000  Level FlightAware ADS-B
Sat 01:37:41 PM 60.8940 -53.2160 233° Southwest 408 470 34,000  Level FlightAware ADS-B
Sat 01:38:17 PM 60.8590 -53.3100 233° Southwest 408 470 34,000  Level FlightAware ADS-B
Sat 01:38:55 PM 60.8230 -53.4100 234° Southwest 408 470 34,000  Level FlightAware ADS-B
Sat 01:39:33 PM 60.7860 -53.5100 233° Southwest 408 470 34,000  Level FlightAware ADS-B
Sat 01:40:09 PM 60.7510 -53.6050 233° Southwest 408 470 34,000  Level FlightAware ADS-B
Sat 01:40:45 PM 60.7160 -53.6990 233° Southwest 408 470 34,000  Level FlightAware ADS-B
Sat 01:41:22 PM 60.6810 -53.7960 234° Southwest 408 470 34,000  Level FlightAware ADS-B
Sat 01:41:58 PM 60.6460 -53.8900 233° Southwest 408 470 34,000  Level FlightAware ADS-B
Sat 01:42:33 PM 60.6120 -53.9810 233° Southwest 408 470 34,000  Level FlightAware ADS-B
Sat 01:43:09 PM 60.5770 -54.0750 233° Southwest 408 470 34,000  Level FlightAware ADS-B
Sat 01:43:45 PM 60.5420 -54.1690 233° Southwest 408 470 34,000  Level FlightAware ADS-B
Sat 01:44:22 PM 60.5070 -54.2650 234° Southwest 408 470 34,000  Level FlightAware ADS-B
Sat 01:47:00 PM 60.3085 -54.7699 232° Southwest  Level FlightAware Approximate
Sat 01:48:00 PM 60.2326 -54.9600 231° Southwest  Level FlightAware Approximate
Sat 01:49:00 PM 60.1564 -55.1492 231° Southwest  Level FlightAware Approximate
Sat 01:50:00 PM 60.0800 -55.3376 231° Southwest  Level FlightAware Approximate
Sat 01:51:00 PM 60.0033 -55.5251 231° Southwest  Level FlightAware Approximate
Sat 01:52:00 PM 59.9263 -55.7117 231° Southwest  Level FlightAware Approximate
Sat 01:53:00 PM 59.8491 -55.8975 230° Southwest  Level FlightAware Approximate
Sat 01:54:00 PM 59.7716 -56.0824 230° Southwest  Level FlightAware Approximate
Sat 01:55:00 PM 59.6939 -56.2664 230° Southwest  Level FlightAware Approximate
Sat 01:56:00 PM 59.6159 -56.4496 230° Southwest  Level FlightAware Approximate
Sat 01:57:00 PM 59.5377 -56.6319 230° Southwest  Level FlightAware Approximate
Sat 01:58:00 PM 59.4591 -56.8134 230° Southwest  Level FlightAware Approximate
Sat 01:59:00 PM 59.3804 -56.9941 229° Southwest  Level FlightAware Approximate
Sat 02:00:00 PM 59.3014 -57.1739 229° Southwest  Level FlightAware Approximate
Sat 02:01:00 PM 59.2221 -57.3529 229° Southwest  Level FlightAware Approximate
Sat 02:02:00 PM 59.1426 -57.5310 229° Southwest  Level FlightAware Approximate
Sat 02:03:00 PM 59.0629 -57.7083 229° Southwest  Level FlightAware Approximate
Sat 02:04:00 PM 58.9829 -57.8848 229° Southwest  Level FlightAware Approximate
Sat 02:05:00 PM 58.9027 -58.0605 229° Southwest  Level FlightAware Approximate
Sat 02:06:00 PM 58.8222 -58.2354 228° Southwest  Level FlightAware Approximate
Sat 02:07:00 PM 58.7415 -58.4094 228° Southwest  Level FlightAware Approximate
Sat 02:08:00 PM 58.6606 -58.5827 228° Southwest  Level FlightAware Approximate
Sat 02:09:00 PM 58.5795 -58.7551 228° Southwest  Level FlightAware Approximate
Sat 02:10:00 PM 58.4981 -58.9267 228° Southwest  Level FlightAware Approximate
Sat 02:11:00 PM 58.4165 -59.0976 228° Southwest  Level FlightAware Approximate
Sat 02:12:00 PM 58.3346 -59.2677 228° Southwest  Level FlightAware Approximate
Sat 02:13:00 PM 58.2526 -59.4369 227° Southwest  Level FlightAware Approximate
Sat 02:14:00 PM 58.1703 -59.6054 227° Southwest  Level FlightAware Approximate
Sat 02:15:00 PM 58.0878 -59.7731 227° Southwest  Level FlightAware Approximate
Sat 02:16:00 PM 58.0012 -59.9321 208° Southwest  Level FlightAware Approximate
Sat 02:17:00 PM 57.9005 -60.0585 214° Southwest  Level FlightAware Approximate
Sat 02:18:00 PM 57.7997 -60.1845 214° Southwest  Level FlightAware Approximate
Sat 02:19:00 PM 57.6988 -60.3097 214° Southwest  Level FlightAware Approximate
Sat 02:20:00 PM 57.5978 -60.4343 213° Southwest  Level FlightAware Approximate
Sat 02:21:00 PM 57.4966 -60.5582 213° Southwest  Level FlightAware Approximate
Sat 02:22:00 PM 57.3954 -60.6814 213° Southwest  Level FlightAware Approximate
Sat 02:23:00 PM 57.2940 -60.8038 213° Southwest  Level FlightAware Approximate
Sat 02:23:13 PM 57.4167 -60.6000 213° Southwest 420 483 34,000  Level Gander Center
Sat 02:24:00 PM 57.1924 -60.9256 212° Southwest  Level FlightAware Approximate
Sat 02:24:13 PM 57.3000 -60.7000 205° Southwest 420 483 34,000  Level Gander Center
Sat 02:25:00 PM 57.0903 -61.0451 212° Southwest  Level FlightAware Approximate
Sat 02:25:13 PM 57.2000 -60.7833 204° Southwest 420 483 34,400  Level Gander Center
Sat 02:26:00 PM 56.9880 -61.1641 212° Southwest  Level FlightAware Approximate
Sat 02:26:13 PM 57.1000 -60.8833 209° Southwest 420 483 34,900  Level Gander Center
Sat 02:27:00 PM 56.8877 -61.2848 213° Southwest  Level Estimated
Sat 02:27:13 PM 56.9833 -60.9833 205° Southwest 420 483 35,400  Level Gander Center
Sat 02:28:00 PM 56.7873 -61.4049 213° Southwest  Level Estimated
Sat 02:28:13 PM 56.8667 -61.1000 209° Southwest 410 472 36,000  Level Gander Center
Sat 02:29:13 PM 56.7667 -61.1833 205° Southwest 420 483 36,000  Level Gander Center
Sat 02:30:13 PM 56.6667 -61.2833 209° Southwest 420 483 36,000  Level Gander Center
Sat 02:31:13 PM 56.5667 -61.3667 205° Southwest 420 483 36,000  Level Gander Center
Sat 02:32:13 PM 56.4500 -61.4667 205° Southwest 420 483 36,000  Level Gander Center
Sat 02:33:13 PM 56.3500 -61.5500 205° Southwest 420 483 36,000  Level Gander Center
Sat 02:34:13 PM 56.2333 -61.6500 205° Southwest 430 495 36,000  Level Gander Center
Sat 02:35:13 PM 56.1333 -61.7333 205° Southwest 430 495 36,000  Level Gander Center
Sat 02:36:13 PM 56.0333 -61.8167 205° Southwest 420 483 36,000  Level Gander Center
Sat 02:37:13 PM 55.9333 -61.9000 205° Southwest 420 483 36,000  Level Gander Center
Sat 02:38:13 PM 55.8167 -62.0000 206° Southwest 420 483 36,000  Level Gander Center
Sat 02:39:13 PM 55.7167 -62.0833 205° Southwest 420 483 36,000  Level Gander Center
Sat 02:40:13 PM 55.6167 -62.1667 205° Southwest 430 495 36,000  Level Gander Center
Sat 02:41:13 PM 55.5000 -62.2833 210° Southwest 430 495 36,000  Level Gander Center
Sat 02:42:13 PM 55.4000 -62.3667 205° Southwest 430 495 36,000  Level Gander Center
Sat 02:43:13 PM 55.2833 -62.4500 202° Southwest 430 495 36,000  Level Gander Center
Sat 02:44:13 PM 55.1667 -62.5333 202° Southwest 430 495 36,000  Level Gander Center
Sat 02:45:13 PM 55.0667 -62.6167 206° Southwest 430 495 36,000  Level Gander Center
Sat 02:46:13 PM 54.9500 -62.7000 202° Southwest 430 495 36,000  Level Gander Center
Sat 02:47:13 PM 54.8333 -62.7833 202° Southwest 430 495 36,000  Level Gander Center
Sat 02:48:13 PM 54.7333 -62.9000 214° Southwest 430 495 36,000  Level Gander Center
Sat 02:49:13 PM 54.6667 -63.0667 235° Southwest 430 495 36,000  Level Gander Center
Sat 02:50:13 PM 54.5833 -63.2500 232° Southwest 430 495 36,000  Level Gander Center
Sat 02:51:13 PM 54.5000 -63.3833 223° Southwest 440 506 36,000  Level Gander Center
Sat 02:52:13 PM 54.4333 -63.5500 236° Southwest 430 495 36,000  Level Gander Center
Sat 02:54:05 PM 54.2500 -63.8000 219° Southwest 420 483 36,000  Level Moncton Center
Sat 02:55:05 PM 54.1667 -63.9167 219° Southwest 420 483 36,000  Level Moncton Center
Sat 02:56:05 PM 54.0667 -64.0333 214° Southwest 410 472 36,000  Level Moncton Center
Sat 02:57:05 PM 53.9667 -64.1167 206° Southwest 420 483 36,000  Level Moncton Center
Sat 02:58:05 PM 53.8500 -64.2000 203° Southwest 430 495 36,000  Level Moncton Center
Sat 02:59:05 PM 53.7333 -64.2833 203° Southwest 440 506 36,000  Level Moncton Center
Sat 03:00:05 PM 53.6333 -64.3667 206° Southwest 430 495 36,000  Level Moncton Center
Sat 03:01:05 PM 53.5167 -64.4500 203° Southwest 430 495 36,000  Level Moncton Center
Sat 03:02:05 PM 53.4000 -64.5167 199° South 430 495 36,000  Level Moncton Center
Sat 03:03:05 PM 53.3000 -64.6000 206° Southwest 440 506 36,000  Level Moncton Center
Sat 03:04:05 PM 53.1833 -64.7333 214° Southwest 440 506 36,000  Level Moncton Center
Sat 03:05:05 PM 53.0833 -64.7833 197° South 440 506 36,000  Level Moncton Center
Sat 03:06:05 PM 52.9667 -64.8667 203° Southwest 450 518 36,000  Level Moncton Center
Sat 03:07:05 PM 52.8500 -64.9167 195° South 440 506 36,000  Level Moncton Center
Sat 03:08:05 PM 52.7333 -65.0000 203° Southwest 440 506 36,000  Level Moncton Center
Sat 03:09:05 PM 52.6333 -65.0667 202° Southwest 440 506 36,000  Level Moncton Center
Sat 03:10:05 PM 52.5000 -65.1333 197° South 440 506 36,000  Level Moncton Center
Sat 03:11:05 PM 52.4000 -65.2167 207° Southwest 440 506 36,000  Level Moncton Center
Sat 03:12:05 PM 52.2833 -65.2667 195° South 440 506 36,000  Level Moncton Center
Sat 03:13:05 PM 52.1667 -65.3500 204° Southwest 440 506 36,000  Level Moncton Center
Sat 03:14:05 PM 52.0500 -65.4000 195° South 450 518 36,000  Level Moncton Center
Sat 03:15:05 PM 51.9333 -65.4833 204° Southwest 440 506 36,000  Level Moncton Center
Sat 03:16:05 PM 51.8167 -65.5333 195° South 440 506 36,000  Level Moncton Center
Sat 03:17:05 PM 51.7000 -65.6167 204° Southwest 440 506 36,000  Level Moncton Center
Sat 03:18:05 PM 51.5833 -65.6667 195° South 440 506 36,000  Level Moncton Center
Sat 03:19:05 PM 51.4667 -65.7333 200° South 440 506 36,000  Level Moncton Center
Sat 03:20:05 PM 51.3333 -65.7833 193° South 440 506 36,000  Level Moncton Center
Sat 03:21:05 PM 51.2167 -65.8667 204° Southwest 450 518 36,000  Level Moncton Center
Sat 03:22:05 PM 51.1000 -65.9167 195° South 450 518 36,000  Level Moncton Center
Sat 03:23:05 PM 50.9833 -66.0000 204° Southwest 450 518 36,000  Level Moncton Center
Sat 03:24:05 PM 50.8667 -66.0667 200° South 450 518 36,000  Level Moncton Center
Sat 03:25:05 PM 50.7500 -66.1167 195° South 450 518 36,000  Level Moncton Center
Sat 03:26:05 PM 50.6333 -66.1833 200° South 450 518 36,000  Level Moncton Center
Sat 03:27:05 PM 50.5000 -66.2667 202° Southwest 450 518 36,000  Level Moncton Center
Sat 03:28:05 PM 50.4000 -66.3167 198° South 450 518 36,000  Level Moncton Center
Sat 03:29:05 PM 50.2833 -66.3833 200° South 450 518 36,000  Level Moncton Center
Sat 03:30:05 PM 50.1500 -66.4333 194° South 450 518 36,000  Level Moncton Center
Sat 03:31:05 PM 50.0333 -66.5167 205° Southwest 450 518 36,000  Level Moncton Center
Sat 03:32:05 PM 49.9167 -66.5500 190° South 450 518 36,000  Level Moncton Center
Sat 03:33:05 PM 49.8000 -66.6333 205° Southwest 440 506 36,000  Level Moncton Center
Sat 03:34:05 PM 49.6833 -66.6667 190° South 440 506 36,000  Level Moncton Center
Sat 03:35:05 PM 49.5667 -66.7500 205° Southwest 440 506 36,000  Level Moncton Center
Sat 03:36:05 PM 49.4500 -66.8000 196° South 440 506 36,000  Level Moncton Center
Sat 03:37:05 PM 49.3333 -66.8667 200° South 430 495 36,000  Level Moncton Center
Sat 03:38:05 PM 49.2333 -66.9167 198° South 430 495 36,000  Level Moncton Center
Sat 03:39:05 PM 49.1167 -66.9833 201° Southwest 430 495 36,000  Level Moncton Center
Sat 03:40:05 PM 49.0000 -67.0333 196° South 430 495 36,000  Level Moncton Center
Sat 03:41:05 PM 48.8833 -67.1000 201° Southwest 430 495 36,000  Level Moncton Center
Sat 03:42:05 PM 48.7667 -67.1333 191° South 420 483 36,000  Level Moncton Center
Sat 03:43:05 PM 48.6500 -67.1833 196° South 430 495 36,000  Level Moncton Center
Sat 03:44:05 PM 48.5333 -67.2500 201° Southwest 430 495 36,000  Level Moncton Center
Sat 03:45:05 PM 48.4333 -67.3000 198° South 430 495 36,000  Level Moncton Center
Sat 03:51:16 PM 47.7520 -67.6410 198° South 424 488 36,000  Level FlightAware ADS-B
Sat 03:51:51 PM 47.6830 -67.6740 198° South 423 487 36,000  Level FlightAware ADS-B
Sat 03:52:28 PM 47.6170 -67.7050 198° South 421 484 36,000  Level FlightAware ADS-B
Sat 03:53:14 PM 47.5510 -67.7350 197° South 420 483 36,000  Level FlightAware ADS-B
Sat 03:53:50 PM 47.4940 -67.7610 197° South 420 483 36,000  Level FlightAware ADS-B
Sat 03:54:28 PM 47.4090 -67.8480 215° Southwest 403 464 36,000  Level FlightAware ADS-B
Sat 03:55:04 PM 47.3510 -67.8980 210° Southwest 405 466 36,000  Level FlightAware ADS-B
Sat 03:55:33 PM 47.3020 -67.9390 210° Southwest 405 466 36,000  Level FlightAware ADS-B
Sat 03:56:09 PM 47.2440 -67.9890 210° Southwest 404 465 36,000  Level FlightAware ADS-B
Sat 03:56:49 PM 47.1790 -68.0440 210° Southwest 402 463 36,000  Level FlightAware ADS-B
Sat 03:57:24 PM 47.1230 -68.0920 210° Southwest 399 459 36,000  Level FlightAware ADS-B
Sat 03:57:54 PM 47.0760 -68.1310 209° Southwest 400 460 36,000  Level FlightAware ADS-B
Sat 03:58:29 PM 47.0170 -68.1810 210° Southwest 401 461 36,000  Level FlightAware ADS-B
Sat 03:59:16 PM 46.9580 -68.2290 209° Southwest 401 461 36,000  Level FlightAware ADS-B
Sat 03:59:52 PM 46.8920 -68.2860 211° Southwest 404 465 36,000  Level FlightAware ADS-B
Sat 04:00:57 PM 46.7840 -68.3760 210° Southwest 402 463 36,000  Level FlightAware ADS-B
Sat 04:01:32 PM 46.7260 -68.4240 210° Southwest 400 460 36,000  Level FlightAware ADS-B
Sat 04:02:02 PM 46.6800 -68.4620 210° Southwest 400 460 36,000  Level FlightAware ADS-B
Sat 04:02:42 PM 46.6150 -68.5160 210° Southwest 398 458 36,000  Level FlightAware ADS-B
Sat 04:03:16 PM 46.5600 -68.5610 209° Southwest 399 459 36,000  Level FlightAware ADS-B
Sat 04:03:52 PM 46.5020 -68.6090 210° Southwest 400 460 36,000  Level FlightAware ADS-B
Sat 04:04:27 PM 46.4490 -68.6520 209° Southwest 401 461 36,000  Level FlightAware ADS-B
Sat 04:05:07 PM 46.3860 -68.7040 210° Southwest 402 463 36,000  Level FlightAware ADS-B
Sat 04:05:37 PM 46.3350 -68.7450 209° Southwest 401 461 36,000  Level FlightAware ADS-B
Sat 04:06:12 PM 46.2780 -68.7910 209° Southwest 399 459 36,000  Level FlightAware ADS-B
Sat 04:06:52 PM 46.2120 -68.8460 210° Southwest 399 459 36,000  Level FlightAware ADS-B
Sat 04:07:22 PM 46.1640 -68.8840 209° Southwest 398 458 36,000  Level FlightAware ADS-B
Sat 04:07:57 PM 46.1100 -68.9280 209° Southwest 398 458 36,000  Level FlightAware ADS-B
Sat 04:08:36 PM 46.0440 -68.9820 210° Southwest 398 458 36,000  Level FlightAware ADS-B
Sat 04:09:07 PM 45.9980 -69.0190 209° Southwest 398 458 36,000  Level FlightAware ADS-B
Sat 04:09:42 PM 45.9390 -69.0660 209° Southwest 395 455 36,000  Level FlightAware ADS-B
Sat 04:10:22 PM 45.8770 -69.1160 209° Southwest 392 451 36,000  Level FlightAware ADS-B
Sat 04:10:52 PM 45.8290 -69.1530 208° Southwest 389 448 36,000  Level FlightAware ADS-B
Sat 04:11:26 PM 45.7750 -69.1970 210° Southwest 389 448 36,000  Level FlightAware ADS-B
Sat 04:12:02 PM 45.7180 -69.2420 209° Southwest 390 449 36,000  Level FlightAware ADS-B
Sat 04:12:37 PM 45.6690 -69.2810 209° Southwest 391 450 36,000  Level FlightAware ADS-B
Sat 04:13:16 PM 45.6020 -69.3340 209° Southwest 391 450 36,000  Level FlightAware ADS-B
Sat 04:13:52 PM 45.5510 -69.3740 209° Southwest 391 450 36,000  Level FlightAware ADS-B
Sat 04:14:22 PM 45.5040 -69.4110 209° Southwest 392 451 36,000  Level FlightAware ADS-B
Sat 04:14:58 PM 45.4430 -69.4600 209° Southwest 393 452 36,000  Level FlightAware ADS-B
Sat 04:15:53 PM 45.3630 -69.5210 208° Southwest 393 452 36,000  Level FlightAware ADS-B
Sat 04:16:33 PM 45.2890 -69.5800 209° Southwest 390 449 36,000  Level FlightAware ADS-B
Sat 04:17:18 PM 45.2230 -69.6320 209° Southwest 392 451 36,000  Level FlightAware ADS-B
Sat 04:17:53 PM 45.1640 -69.6780 209° Southwest 400 460 36,000  Level FlightAware ADS-B
Sat 04:18:29 PM 45.1020 -69.7260 209° Southwest 401 461 36,000  Level FlightAware ADS-B
Sat 04:19:24 PM 45.0190 -69.7890 208° Southwest 402 463 36,000  Level FlightAware ADS-B
Sat 04:20:03 PM 44.9500 -69.8430 209° Southwest 399 459 36,000  Level FlightAware ADS-B
Sat 04:20:52 PM 44.8780 -69.8980 208° Southwest 396 456 36,000  Level FlightAware ADS-B
Sat 04:21:25 PM 44.8160 -69.9460 209° Southwest 393 452 36,000  Level FlightAware ADS-B
Sat 04:22:01 PM 44.7590 -69.9890 208° Southwest 393 452 36,000  Level FlightAware ADS-B
Sat 04:22:37 PM 44.7010 -70.0330 208° Southwest 393 452 36,000  Level FlightAware ADS-B
Sat 04:23:09 PM 44.6510 -70.0720 209° Southwest 394 453 36,000  Level FlightAware ADS-B
Sat 04:23:41 PM 44.5990 -70.1120 209° Southwest 396 456 36,000  Level FlightAware ADS-B
Sat 04:24:22 PM 44.5330 -70.1620 208° Southwest 398 458 36,000  Level FlightAware ADS-B
Sat 04:24:54 PM 44.4820 -70.2010 209° Southwest 401 461 36,000  Level FlightAware ADS-B
Sat 04:25:30 PM 44.4210 -70.2470 208° Southwest 401 461 36,000  Level FlightAware ADS-B
Sat 04:26:04 PM 44.3660 -70.2880 208° Southwest 402 463 36,000  Level FlightAware ADS-B
Sat 04:26:40 PM 44.3080 -70.3320 208° Southwest 403 464 36,000  Level FlightAware ADS-B
Sat 04:27:16 PM 44.2490 -70.3760 208° Southwest 403 464 36,000  Level FlightAware ADS-B
Sat 04:27:48 PM 44.1960 -70.4150 208° Southwest 403 464 36,000  Level FlightAware ADS-B
Sat 04:28:26 PM 44.1330 -70.4620 208° Southwest 401 461 36,000  Level FlightAware ADS-B
Sat 04:29:02 PM 44.0740 -70.5060 208° Southwest 400 460 36,000  Level FlightAware ADS-B
Sat 04:29:34 PM 44.0240 -70.5430 208° Southwest 400 460 36,000  Level FlightAware ADS-B
Sat 04:30:10 PM 43.9650 -70.5870 208° Southwest 400 460 36,000  Level FlightAware ADS-B
Sat 04:30:46 PM 43.9050 -70.6310 208° Southwest 399 459 36,000  Level FlightAware ADS-B
Sat 04:31:18 PM 43.8530 -70.6700 208° Southwest 398 458 36,000  Level FlightAware ADS-B
Sat 04:31:54 PM 43.7970 -70.7120 208° Southwest 397 457 36,000  Level FlightAware ADS-B
Sat 04:32:28 PM 43.7400 -70.7530 207° Southwest 397 457 36,000  Level FlightAware ADS-B
Sat 04:33:04 PM 43.6810 -70.7960 208° Southwest 397 457 36,000  Level FlightAware ADS-B
Sat 04:33:42 PM 43.6200 -70.8410 208° Southwest 400 460 36,000  Level FlightAware ADS-B
Sat 04:34:14 PM 43.5670 -70.8800 208° Southwest 402 463 36,000  Level FlightAware ADS-B
Sat 04:34:50 PM 43.5070 -70.9240 208° Southwest 401 461 36,000  Level FlightAware ADS-B
Sat 04:35:25 PM 43.4530 -70.9630 208° Southwest 403 464 36,000  Level FlightAware ADS-B
Sat 04:36:02 PM 43.3890 -71.0090 208° Southwest 404 465 36,000  Level FlightAware ADS-B
Sat 04:36:34 PM 43.3370 -71.0470 208° Southwest 403 464 36,000  Level FlightAware ADS-B
Sat 04:37:10 PM 43.2770 -71.0900 208° Southwest 402 463 36,000  Level FlightAware ADS-B
Sat 04:37:46 PM 43.2170 -71.1330 208° Southwest 402 463 36,000  Level FlightAware ADS-B
Sat 04:38:18 PM 43.1650 -71.1710 208° Southwest 402 463 36,000  Level FlightAware ADS-B
Sat 04:38:54 PM 43.1070 -71.2130 208° Southwest 403 464 36,000  Level FlightAware ADS-B
Sat 04:39:26 PM 43.0530 -71.2510 207° Southwest 404 465 36,000  Level FlightAware ADS-B
Sat 04:40:04 PM 42.9900 -71.2960 208° Southwest 404 465 36,000  Level FlightAware ADS-B
Sat 04:40:40 PM 42.9310 -71.3390 208° Southwest 405 466 36,000  Level FlightAware ADS-B
Sat 04:41:17 PM 42.8700 -71.3830 208° Southwest 402 463 36,000  Level FlightAware ADS-B
Sat 04:41:50 PM 42.8170 -71.4240 210° Southwest 400 460 36,000  Level FlightAware ADS-B
Sat 04:42:26 PM 42.7580 -71.4680 209° Southwest 400 460 36,000  Level FlightAware ADS-B
Sat 04:42:58 PM 42.7070 -71.5070 209° Southwest 398 458 36,000  Level FlightAware ADS-B
Sat 04:43:42 PM 42.6350 -71.5610 209° Southwest 398 458 36,000  Level FlightAware ADS-B
Sat 04:44:18 PM 42.5780 -71.6040 209° Southwest 400 460 36,000  Level FlightAware ADS-B
Sat 04:44:50 PM 42.5260 -71.6420 208° Southwest 401 461 36,000  Level FlightAware ADS-B
Sat 04:45:28 PM 42.4640 -71.6890 209° Southwest 401 461 36,000  Level FlightAware ADS-B
Sat 04:45:58 PM 42.4160 -71.7240 208° Southwest 399 459 36,000  Level FlightAware ADS-B
Sat 04:46:38 PM 42.3510 -71.7720 209° Southwest 396 456 36,000  Level FlightAware ADS-B
Sat 04:47:14 PM 42.2940 -71.8150 209° Southwest 396 456 36,000  Level FlightAware ADS-B
Sat 04:47:46 PM 42.2420 -71.8530 208° Southwest 397 457 36,000  Level FlightAware ADS-B
Sat 04:48:22 PM 42.1830 -71.8970 209° Southwest 397 457 36,000  Level FlightAware ADS-B
Sat 04:48:58 PM 42.1270 -71.9380 209° Southwest 397 457 36,000  Level FlightAware ADS-B
Sat 04:49:34 PM 42.0680 -71.9810 208° Southwest 398 458 36,000  Level FlightAware ADS-B
Sat 04:50:04 PM 42.0190 -72.0170 209° Southwest 398 458 36,000  Level FlightAware ADS-B
Sat 04:50:44 PM 41.9540 -72.0650 209° Southwest 400 460 36,000  Level FlightAware ADS-B
Sat 04:51:15 PM 41.9050 -72.1000 208° Southwest 400 460 36,000  Level FlightAware ADS-B
Sat 04:51:48 PM 41.8510 -72.1390 208° Southwest 399 459 36,000  Level FlightAware ADS-B
Sat 04:52:28 PM 41.7840 -72.1880 209° Southwest 400 460 36,000  Level FlightAware ADS-B
Sat 04:53:07 PM 41.7260 -72.2300 208° Southwest 402 463 36,000  Level FlightAware ADS-B
Sat 04:53:42 PM 41.6710 -72.2700 209° Southwest 402 463 36,000  Level FlightAware ADS-B
Sat 04:54:17 PM 41.6090 -72.3150 208° Southwest 404 465 36,000  Level FlightAware ADS-B
Sat 04:54:57 PM 41.5430 -72.3630 209° Southwest 405 466 36,000  Level FlightAware ADS-B
Sat 04:55:36 PM 41.4830 -72.4050 208° Southwest 405 466 36,000  Level FlightAware ADS-B
Sat 04:56:06 PM 41.4310 -72.4430 209° Southwest 406 467 36,000  Level FlightAware ADS-B
Sat 04:56:51 PM 41.3550 -72.4970 208° Southwest 407 468 36,000  Level FlightAware ADS-B
Sat 04:57:26 PM 41.2970 -72.5390 209° Southwest 409 471 36,000  Level FlightAware ADS-B
Sat 04:58:01 PM 41.2430 -72.5770 208° Southwest 408 470 36,000  Level FlightAware ADS-B
Sat 04:58:36 PM 41.1800 -72.6220 208° Southwest 406 467 36,000  Level FlightAware ADS-B
Sat 04:59:11 PM 41.1240 -72.6620 208° Southwest 407 468 36,000  Level FlightAware ADS-B
Sat 04:59:46 PM 41.0680 -72.7020 208° Southwest 408 470 36,000  Level FlightAware ADS-B
Sat 05:00:17 PM 41.0180 -72.7370 208° Southwest 409 471 36,000  Level FlightAware ADS-B
Sat 05:00:54 PM 40.9472 -72.7867 208° Southwest 410 472 36,000  Level FlightAware ADS-B
Sat 05:01:27 PM 40.8951 -72.8316 213° Southwest 406 467 36,000  Level FlightAware ADS-B
Sat 05:02:01 PM 40.8440 -72.8821 217° Southwest 406 467 36,000  Level FlightAware ADS-B
Sat 05:02:32 PM 40.7984 -72.9269 217° Southwest 407 468 36,000  Level FlightAware ADS-B
Sat 05:03:02 PM 40.7531 -72.9709 216° Southwest 408 470 36,000  Level FlightAware ADS-B
Sat 05:03:34 PM 40.7032 -73.0194 216° Southwest 409 471 36,000  Level FlightAware ADS-B
Sat 05:04:05 PM 40.6571 -73.0640 216° Southwest 408 470 36,000  Level FlightAware ADS-B
Sat 05:04:35 PM 40.6114 -73.1081 216° Southwest 408 470 36,000  Level FlightAware ADS-B
Sat 05:05:08 PM 40.5617 -73.1561 216° Southwest 407 468 36,000  Level FlightAware ADS-B
Sat 05:05:40 PM 40.5137 -73.2024 216° Southwest 408 470 36,000  Level FlightAware ADS-B
Sat 05:06:11 PM 40.4690 -73.2460 217° Southwest 408 470 36,000  Level FlightAware ADS-B
Sat 05:06:54 PM 40.3999 -73.3118 216° Southwest 410 472 36,000  Level FlightAware ADS-B
Sat 05:07:28 PM 40.3476 -73.3617 216° Southwest 410 472 36,000  Level FlightAware ADS-B
Sat 05:08:20 PM 40.2698 -73.4360 216° Southwest 411 473 36,000  Level FlightAware ADS-B
Sat 05:08:51 PM 40.2201 -73.4834 216° Southwest 412 474 36,000  Level FlightAware ADS-B
Sat 05:09:23 PM 40.1704 -73.5307 216° Southwest 413 475 36,000  Level FlightAware ADS-B
Sat 05:09:55 PM 40.1216 -73.5771 216° Southwest 414 476 36,000  Level FlightAware ADS-B
Sat 05:10:33 PM 40.0631 -73.6324 216° Southwest 416 479 36,000  Level FlightAware ADS-B
Sat 05:11:03 PM 40.0158 -73.6772 216° Southwest 419 482 36,000  Level FlightAware ADS-B
Sat 05:11:34 PM 39.9666 -73.7235 216° Southwest 420 483 36,000  Level FlightAware ADS-B
Sat 05:12:05 PM 39.9183 -73.7690 216° Southwest 420 483 36,000  Level FlightAware ADS-B
Sat 05:12:44 PM 39.8574 -73.8262 216° Southwest 421 484 36,000  Level FlightAware ADS-B
Sat 05:13:15 PM 39.8100 -73.8710 216° Southwest 420 483 36,000  Level FlightAware ADS-B
Sat 05:13:33 PM 39.7801 -73.8987 215° Southwest 420 483 36,000  Level FlightAware ADS-B
Sat 05:13:44 PM 39.7615 -73.9152 214° Southwest 424 488 36,000  Level FlightAware ADS-B
Sat 05:14:20 PM 39.7017 -73.9617 211° Southwest 426 490 36,000  Level FlightAware ADS-B
Sat 05:14:51 PM 39.6490 -74.0025 211° Southwest 428 493 36,000 393 Level FlightAware ADS-B
Sat 05:15:21 PM 39.5979 -74.0428 211° Southwest 426 490 36,400 984 Climbing FlightAware ADS-B
Sat 05:15:52 PM 39.5463 -74.0837 211° Southwest 426 490 37,000 1,258 Climbing FlightAware ADS-B
Sat 05:16:23 PM 39.4938 -74.1252 211° Southwest 424 488 37,700 984 Climbing FlightAware ADS-B
Sat 05:16:53 PM 39.4438 -74.1647 211° Southwest 427 491 38,000 295 Climbing FlightAware ADS-B
Sat 05:17:24 PM 39.3927 -74.2050 211° Southwest 430 495 38,000  Level FlightAware ADS-B
Sat 05:17:56 PM 39.3375 -74.2485 211° Southwest 430 495 38,000  Level FlightAware ADS-B
Sat 05:18:28 PM 39.2836 -74.2908 211° Southwest 429 494 38,000  Level FlightAware ADS-B
Sat 05:19:03 PM 39.2232 -74.3381 211° Southwest 429 494 38,000  Level FlightAware ADS-B
Sat 05:19:37 PM 39.1657 -74.3831 211° Southwest 429 494 38,000  Level FlightAware ADS-B
Sat 05:20:07 PM 39.1143 -74.4233 211° Southwest 431 496 38,000  Level FlightAware ADS-B
Sat 05:20:39 PM 39.0601 -74.4656 211° Southwest 432 497 38,000  Level FlightAware ADS-B
Sat 05:21:10 PM 39.0083 -74.5059 211° Southwest 433 498 38,000  Level FlightAware ADS-B
Sat 05:21:40 PM 38.9565 -74.5460 211° Southwest 433 498 38,000  Level FlightAware ADS-B
Sat 05:22:10 PM 38.9053 -74.5857 211° Southwest 433 498 38,000  Level FlightAware ADS-B
Sat 05:22:40 PM 38.8535 -74.6259 211° Southwest 434 499 38,000  Level FlightAware ADS-B
Sat 05:23:12 PM 38.7984 -74.6685 211° Southwest 436 502 38,000  Level FlightAware ADS-B
Sat 05:23:49 PM 38.7339 -74.7182 211° Southwest 436 502 38,000  Level FlightAware ADS-B
Sat 05:24:20 PM 38.6801 -74.7597 211° Southwest 438 504 38,000  Level FlightAware ADS-B
Sat 05:24:53 PM 38.6240 -74.8027 211° Southwest 439 505 38,000  Level FlightAware ADS-B
Sat 05:25:26 PM 38.5664 -74.8469 211° Southwest 441 507 38,000  Level FlightAware ADS-B
Sat 05:25:56 PM 38.5137 -74.8872 211° Southwest 442 509 38,000  Level FlightAware ADS-B
Sat 05:26:29 PM 38.4559 -74.9314 211° Southwest 445 512 38,000  Level FlightAware ADS-B
Sat 05:27:03 PM 38.3970 -74.9760 211° Southwest 438 504 38,000  Level FlightAware ADS-B
Sat 05:27:27 PM 38.3536 -75.0094 211° Southwest 445 512 38,000  Level FlightAware ADS-B
Sat 05:27:57 PM 38.3016 -75.0490 211° Southwest 444 511 38,000  Level FlightAware ADS-B
Sat 05:28:28 PM 38.2455 -75.0916 211° Southwest 443 510 38,000  Level FlightAware ADS-B
Sat 05:29:00 PM 38.1892 -75.1342 211° Southwest 443 510 38,000  Level FlightAware ADS-B
Sat 05:29:31 PM 38.1450 -75.1680 211° Southwest 435 501 38,000  Level FlightAware ADS-B
Sat 05:29:43 PM 38.1138 -75.1912 210° Southwest 443 510 38,000  Level FlightAware ADS-B
Sat 05:30:13 PM 38.0609 -75.2310 211° Southwest 443 510 38,000  Level FlightAware ADS-B
Sat 05:30:43 PM 38.0080 -75.2710 211° Southwest 443 510 38,000  Level FlightAware ADS-B
Sat 05:31:14 PM 37.9532 -75.3121 211° Southwest 442 509 38,000  Level FlightAware ADS-B
Sat 05:31:46 PM 37.8978 -75.3537 211° Southwest 441 507 38,000  Level FlightAware ADS-B
Sat 05:32:29 PM 37.8250 -75.4080 211° Southwest 431 496 38,000  Level FlightAware ADS-B
Sat 05:33:04 PM 37.7640 -75.4540 211° Southwest 431 496 38,000  Level FlightAware ADS-B
Sat 05:33:51 PM 37.6794 -75.5170 211° Southwest 437 503 38,000  Level FlightAware ADS-B
Sat 05:34:22 PM 37.6257 -75.5570 211° Southwest 438 504 38,000  Level FlightAware ADS-B
Sat 05:34:53 PM 37.5710 -75.5976 210° Southwest 439 505 38,000  Level FlightAware ADS-B
Sat 05:35:24 PM 37.5184 -75.6366 210° Southwest 439 505 38,000  Level FlightAware ADS-B
Sat 05:35:57 PM 37.4607 -75.6793 210° Southwest 438 504 38,000  Level FlightAware ADS-B
Sat 05:36:38 PM 37.3920 -75.7300 210° Southwest 432 497 38,000  Level FlightAware ADS-B
Sat 05:37:11 PM 37.3420 -75.7670 210° Southwest 433 498 38,000  Level FlightAware ADS-B
Sat 05:37:51 PM 37.2680 -75.8210 210° Southwest 435 501 38,000  Level FlightAware ADS-B
Sat 05:38:03 PM 37.2386 -75.8430 211° Southwest 442 509 38,000  Level FlightAware ADS-B
Sat 05:38:35 PM 37.1814 -75.8850 210° Southwest 443 510 38,000  Level FlightAware ADS-B
Sat 05:39:07 PM 37.1261 -75.9256 210° Southwest 441 507 38,000  Level FlightAware ADS-B
Sat 05:39:37 PM 37.0728 -75.9646 210° Southwest 440 506 38,000  Level FlightAware ADS-B
Sat 05:40:08 PM 37.0189 -76.0038 210° Southwest 438 504 38,000  Level FlightAware ADS-B
Sat 05:40:39 PM 36.9640 -76.0439 210° Southwest 440 506 38,000  Level FlightAware ADS-B
Sat 05:41:01 PM 36.9254 -76.0724 211° Southwest 440 506 38,000  Level FlightAware ADS-B
Sat 05:41:16 PM 36.9026 -76.0960 220° Southwest 436 502 38,000  Level FlightAware ADS-B
Sat 05:41:26 PM 36.8896 -76.1144 229° Southwest 434 499 38,000  Level FlightAware ADS-B
Sat 05:42:01 PM 36.8530 -76.1740 233° Southwest 430 495 38,000  Level FlightAware ADS-B
Sat 05:42:44 PM 36.7950 -76.2670 232° Southwest 433 498 38,000  Level FlightAware ADS-B
Sat 05:43:17 PM 36.7630 -76.3200 233° Southwest 433 498 38,000  Level FlightAware ADS-B
Sat 05:43:49 PM 36.7130 -76.3980 231° Southwest 437 503 38,000  Level FlightAware ADS-B
Sat 05:44:39 PM 36.6450 -76.4940 229° Southwest 442 509 38,000  Level FlightAware ADS-B
Sat 05:45:17 PM 36.5880 -76.5570 222° Southwest 440 506 38,000  Level FlightAware ADS-B
Sat 05:45:49 PM 36.5380 -76.6120 221° Southwest 439 505 38,000  Level FlightAware ADS-B
Sat 05:46:25 PM 36.4880 -76.6680 222° Southwest 438 504 38,000  Level FlightAware ADS-B
Sat 05:46:59 PM 36.4350 -76.7250 221° Southwest 435 501 38,000  Level FlightAware ADS-B
Sat 05:47:39 PM 36.3660 -76.7810 213° Southwest 438 504 38,000  Level FlightAware ADS-B
Sat 05:48:19 PM 36.2960 -76.8350 212° Southwest 450 518 38,000  Level FlightAware ADS-B
Sat 05:48:56 PM 36.2300 -76.8760 207° Southwest 456 525 38,000  Level FlightAware ADS-B
Sat 05:49:30 PM 36.1600 -76.9020 197° South 458 527 38,000  Level FlightAware ADS-B
Sat 05:50:04 PM 36.0880 -76.9300 197° South 458 527 38,000  Level FlightAware ADS-B
Sat 05:50:39 PM 36.0200 -76.9570 198° South 459 528 38,000  Level FlightAware ADS-B
Sat 05:51:14 PM 35.9550 -76.9820 197° South 459 528 38,000  Level FlightAware ADS-B
Sat 05:51:52 PM 35.8900 -77.0060 197° South 459 528 38,000  Level FlightAware ADS-B
Sat 05:52:29 PM 35.8260 -77.0300 197° South 459 528 38,000  Level FlightAware ADS-B
Sat 05:53:05 PM 35.7640 -77.0540 197° South 459 528 38,000  Level FlightAware ADS-B
Sat 05:53:41 PM 35.7020 -77.0770 197° South 459 528 38,000  Level FlightAware ADS-B
Sat 05:54:17 PM 35.6390 -77.1010 197° South 459 528 38,000  Level FlightAware ADS-B
Sat 05:54:54 PM 35.5760 -77.1250 197° South 459 528 38,000  Level FlightAware ADS-B
Sat 05:55:31 PM 35.5120 -77.1490 197° South 459 528 38,000  Level FlightAware ADS-B
Sat 05:56:07 PM 35.4500 -77.1720 197° South 459 528 38,000  Level FlightAware ADS-B
Sat 05:56:43 PM 35.3870 -77.1950 197° South 459 528 38,000  Level FlightAware ADS-B
Sat 05:57:19 PM 35.3250 -77.2190 198° South 459 528 38,000  Level FlightAware ADS-B
Sat 05:57:55 PM 35.2630 -77.2420 197° South 459 528 38,000  Level FlightAware ADS-B
Sat 05:58:31 PM 35.2010 -77.2650 197° South 459 528 38,000  Level FlightAware ADS-B
Sat 05:59:05 PM 35.1420 -77.2870 197° South 459 528 38,000  Level FlightAware ADS-B
Sat 05:59:41 PM 35.0800 -77.3100 197° South 459 528 38,000  Level FlightAware ADS-B
Sat 06:00:17 PM 35.0180 -77.3330 197° South 459 528 38,000  Level FlightAware ADS-B
Sat 06:00:53 PM 34.9560 -77.3570 198° South 459 528 38,000  Level FlightAware ADS-B
Sat 06:01:42 PM 34.6722 -77.4761 198° South 466 536 38,000  Level Washington Center
Sat 06:06:52 PM 34.0050 -77.7220 198° South 474 545 38,000  Level FlightAware ADS-B
Sat 06:07:27 PM 33.9300 -77.7500 197° South 475 547 38,000  Level FlightAware ADS-B
Sat 06:08:05 PM 33.8620 -77.7750 197° South 475 547 38,000  Level FlightAware ADS-B
Sat 06:08:37 PM 33.7840 -77.8040 197° South 477 549 38,000  Level FlightAware ADS-B
Sat 06:09:12 PM 33.7070 -77.8320 197° South 477 549 38,000  Level FlightAware ADS-B
Sat 06:09:53 PM 33.6380 -77.8570 197° South 477 549 38,000  Level FlightAware ADS-B
Sat 06:10:34 PM 33.6180 -77.8650 198° South 477 549 38,000  Level FlightAware ADS-B
Sat 06:11:10 PM 33.5540 -77.8880 197° South 477 549 38,000  Level FlightAware ADS-B
Sat 06:11:47 PM 33.4870 -77.9130 197° South 477 549 38,000  Level FlightAware ADS-B
Sat 06:12:17 PM 33.6850 -77.8400 17° North 38,000  Level FlightAware ADS-B
Sat 06:13:27 PM 33.1690 -78.0290 197° South 478 550 38,000  Level FlightAware ADS-B
Sat 06:13:57 PM 33.1070 -78.0510 197° South 479 551 38,000  Level FlightAware ADS-B
Sat 06:14:42 PM 33.0250 -78.0810 197° South 479 551 38,000  Level FlightAware ADS-B
Sat 06:15:22 PM 32.9270 -78.1160 197° South 480 552 38,000  Level FlightAware ADS-B
Sat 06:16:12 PM 32.8180 -78.1550 197° South 480 552 38,000  Level FlightAware ADS-B
Sat 06:16:42 PM 32.7560 -78.1780 197° South 479 551 38,000  Level FlightAware ADS-B
Sat 06:17:22 PM 32.6710 -78.2080 197° South 479 551 38,000  Level FlightAware ADS-B
Sat 06:18:12 PM 32.5650 -78.2460 197° South 479 551 38,000  Level FlightAware ADS-B
Sat 06:18:57 PM 32.4680 -78.2810 197° South 479 551 38,000  Level FlightAware ADS-B
Sat 06:19:27 PM 32.4060 -78.3030 197° South 479 551 38,000  Level FlightAware ADS-B
Sat 06:20:12 PM 32.3240 -78.3320 197° South 480 552 38,000  Level FlightAware ADS-B
Sat 06:20:52 PM 32.3240 -78.3320 197° South 481 554 38,000  Level FlightAware ADS-B
Sat 06:21:28 PM 32.2580 -78.3540 196° South 481 554 38,000  Level FlightAware ADS-B
Sat 06:22:04 PM 32.1930 -78.3760 196° South 481 554 38,000  Level FlightAware ADS-B
Sat 06:22:40 PM 32.3200 -78.3330 16° North 481 554 38,000  Level FlightAware ADS-B
Sat 06:23:17 PM 32.2530 -78.3560 196° South 481 554 38,000  Level FlightAware ADS-B
Sat 06:23:53 PM 32.1870 -78.3780 196° South 481 554 38,000  Level FlightAware ADS-B
Sat 06:24:30 PM 32.1200 -78.4010 196° South 481 554 38,000  Level FlightAware ADS-B
Sat 06:25:06 PM 32.0550 -78.4230 196° South 481 554 38,000  Level FlightAware ADS-B
Sat 06:25:42 PM 31.9890 -78.4450 196° South 481 554 38,000  Level FlightAware ADS-B
Sat 06:26:19 PM 31.9220 -78.4680 196° South 481 554 38,000  Level FlightAware ADS-B
Sat 06:26:55 PM 31.8570 -78.4900 196° South 481 554 38,000  Level FlightAware ADS-B
Sat 06:27:31 PM 31.7910 -78.5120 196° South 481 554 38,000  Level FlightAware ADS-B
Sat 06:28:07 PM 31.7260 -78.5340 196° South 481 554 38,000  Level FlightAware ADS-B
Sat 06:28:44 PM 31.6580 -78.5570 196° South 481 554 38,000  Level FlightAware ADS-B
Sat 06:29:20 PM 31.5930 -78.5790 196° South 481 554 38,000  Level FlightAware ADS-B
Sat 06:29:56 PM 31.5270 -78.6010 196° South 481 554 38,000  Level FlightAware ADS-B
Sat 06:30:33 PM 31.4600 -78.6230 196° South 481 554 38,000  Level FlightAware ADS-B
Sat 06:31:09 PM 31.3950 -78.6450 196° South 481 554 38,000  Level FlightAware ADS-B
Sat 06:31:45 PM 31.3290 -78.6670 196° South 481 554 38,000  Level FlightAware ADS-B
Sat 06:32:42 PM 30.7319 -78.8906 196° South 471 542 38,000  Level Jacksonville Center
Sat 06:34:29 PM 30.5108 -78.9667 197° South 450 518 38,000  Level Miami Center
Sat 06:35:29 PM 30.3828 -79.0122 197° South 466 536 38,000  Level Miami Center
Sat 06:36:29 PM 30.2633 -79.0650 201° Southwest 471 542 38,000  Level Miami Center
Sat 06:37:29 PM 30.1436 -79.1178 201° Southwest 470 541 38,000  Level Miami Center
Sat 06:38:29 PM 30.0069 -79.1842 203° Southwest 470 541 38,000  Level Miami Center
Sat 06:39:29 PM 29.8853 -79.2367 201° Southwest 480 552 38,000  Level Miami Center
Sat 06:40:40 PM 29.7614 -79.2889 200° South 480 552 38,000  Level Miami Center
Sat 06:41:41 PM 29.6142 -79.3525 201° Southwest 474 545 38,000  Level Miami Center
Sat 06:47:37 PM 28.8770 -79.6070 201° Southwest 453 521 38,000  Level FlightAware ADS-B
Sat 06:48:12 PM 28.8010 -79.6210 189° South 459 528 38,000  Level FlightAware ADS-B
Sat 06:48:43 PM 28.7420 -79.6320 189° South 458 527 38,000  Level FlightAware ADS-B
Sat 06:49:27 PM 28.6430 -79.6490 189° South 456 525 38,000  Level FlightAware ADS-B
Sat 06:50:02 PM 28.5750 -79.6620 190° South 456 525 38,000  Level FlightAware ADS-B
Sat 06:50:37 PM 28.4980 -79.6750 188° South 456 525 38,000  Level FlightAware ADS-B
Sat 06:51:12 PM 28.4270 -79.6880 189° South 456 525 38,000  Level FlightAware ADS-B
Sat 06:51:49 PM 28.3450 -79.7030 189° South 456 525 38,000  Level FlightAware ADS-B
Sat 06:52:25 PM 28.2780 -79.7150 189° South 457 526 38,000  Level FlightAware ADS-B
Sat 06:52:57 PM 28.2070 -79.7270 188° South 457 526 38,000  Level FlightAware ADS-B
Sat 06:53:33 PM 28.1310 -79.7410 189° South 458 527 38,000  Level FlightAware ADS-B
Sat 06:54:07 PM 28.0590 -79.7540 189° South 459 528 38,000  Level FlightAware ADS-B
Sat 06:54:43 PM 27.9830 -79.7670 189° South 453 521 38,000  Level FlightAware ADS-B
Sat 06:55:12 PM 27.9220 -79.7870 196° South 462 532 38,000  Level FlightAware ADS-B
Sat 06:55:43 PM 27.8650 -79.8120 201° Southwest 462 532 38,000  Level FlightAware ADS-B
Sat 06:56:22 PM 27.7790 -79.8480 200° South 462 532 38,000  Level FlightAware ADS-B
Sat 06:56:58 PM 27.7090 -79.8770 200° South 462 532 38,000  Level FlightAware ADS-B
Sat 06:57:28 PM 27.6470 -79.9030 200° South 462 532 38,000  Level FlightAware ADS-B
Sat 06:58:08 PM 27.5650 -79.9370 200° South 460 529 38,000  Level FlightAware ADS-B
Sat 06:58:42 PM 27.4970 -79.9660 201° Southwest 461 531 38,000  Level FlightAware ADS-B
Sat 06:59:13 PM 27.4320 -79.9930 200° South 463 533 38,000  Level FlightAware ADS-B
Sat 06:59:52 PM 27.3520 -80.0260 200° South 464 534 38,000  Level FlightAware ADS-B
Sat 07:00:28 PM 27.2800 -80.0560 200° South 464 534 38,000  Level FlightAware ADS-B
Sat 07:01:02 PM 27.2110 -80.0850 200° South 465 535 38,000  Level FlightAware ADS-B
Sat 07:01:33 PM 27.1460 -80.1110 200° South 465 535 38,000  Level FlightAware ADS-B
Sat 07:02:12 PM 27.0640 -80.1450 200° South 468 539 38,000  Level FlightAware ADS-B
Sat 07:02:43 PM 27.0010 -80.1710 200° South 476 548 38,000  Level FlightAware ADS-B
Sat 07:03:22 PM 26.9200 -80.2050 201° Southwest 477 549 38,000  Level FlightAware ADS-B
Sat 07:03:53 PM 26.8550 -80.2310 200° South 479 551 38,000  Level FlightAware ADS-B
Sat 07:04:37 PM 26.7620 -80.2690 200° South 479 551 38,000  Level FlightAware ADS-B
Sat 07:05:13 PM 26.6890 -80.2990 200° South 479 551 38,000  Level FlightAware ADS-B
Sat 07:05:47 PM 26.6170 -80.3290 200° South 479 551 38,000  Level FlightAware ADS-B
Sat 07:06:23 PM 26.5490 -80.3570 200° South 477 549 38,000  Level FlightAware ADS-B
Sat 07:07:04 PM 26.4640 -80.3920 200° South 467 537 38,000  Level FlightAware ADS-B
Sat 07:07:38 PM 26.3880 -80.4230 200° South 467 537 38,000  Level FlightAware ADS-B
Sat 07:08:17 PM 26.3060 -80.4560 200° South 467 537 38,000  Level FlightAware ADS-B
Sat 07:08:48 PM 26.2420 -80.4820 200° South 467 537 38,000  Level FlightAware ADS-B
Sat 07:09:27 PM 26.1610 -80.5150 200° South 477 549 38,000  Level FlightAware ADS-B
Sat 07:10:08 PM 26.0760 -80.5490 200° South 477 549 38,000  Level FlightAware ADS-B
Sat 07:10:42 PM 26.0060 -80.5780 200° South 478 550 38,000  Level FlightAware ADS-B
Sat 07:11:18 PM 25.9320 -80.6080 200° South 478 550 38,000  Level FlightAware ADS-B
Sat 07:11:54 PM 25.8600 -80.6370 200° South 477 549 38,000  Level FlightAware ADS-B
Sat 07:12:28 PM 25.7860 -80.6670 200° South 464 534 38,000  Level FlightAware ADS-B
Sat 07:13:03 PM 25.7150 -80.6950 200° South 463 533 38,000  Level FlightAware ADS-B
Sat 07:13:38 PM 25.6430 -80.7250 201° Southwest 465 535 38,000  Level FlightAware ADS-B
Sat 07:13:53 PM 25.6130 -80.7420 207° Southwest 465 535 38,000  Level FlightAware ADS-B
Sat 07:14:27 PM 25.5580 -80.7990 223° Southwest 466 536 38,000  Level FlightAware ADS-B
Sat 07:15:08 PM 25.4950 -80.8690 225° Southwest 468 539 38,000  Level FlightAware ADS-B
Sat 07:15:43 PM 25.4430 -80.9280 226° Southwest 469 540 38,000  Level FlightAware ADS-B
Sat 07:16:18 PM 25.3880 -80.9900 226° Southwest 468 539 38,000  Level FlightAware ADS-B
Sat 07:16:53 PM 25.3350 -81.0490 225° Southwest 469 540 38,000  Level FlightAware ADS-B
Sat 07:17:28 PM 25.2800 -81.1110 226° Southwest 470 541 38,000  Level FlightAware ADS-B
Sat 07:18:03 PM 25.2270 -81.1700 225° Southwest 470 541 38,000  Level FlightAware ADS-B
Sat 07:18:38 PM 25.1710 -81.2320 225° Southwest 477 549 38,000  Level FlightAware ADS-B
Sat 07:19:13 PM 25.1180 -81.2910 225° Southwest 477 549 38,000  Level FlightAware ADS-B
Sat 07:19:48 PM 25.0630 -81.3520 225° Southwest 478 550 38,000  Level FlightAware ADS-B
Sat 07:20:22 PM 25.0090 -81.4130 226° Southwest 478 550 38,000  Level FlightAware ADS-B
Sat 07:20:58 PM 24.9530 -81.4750 225° Southwest 478 550 38,000 -257 Level FlightAware ADS-B
Sat 07:21:32 PM 24.9000 -81.5340 225° Southwest 481 554 37,700 -771 Descending FlightAware ADS-B
Sat 07:22:08 PM 24.8440 -81.5950 225° Southwest 482 555 37,100 -1,014 Descending FlightAware ADS-B
Sat 07:22:43 PM 24.7880 -81.6570 225° Southwest 480 552 36,500 -1,029 Descending FlightAware ADS-B
Sat 07:23:18 PM 24.7340 -81.7170 225° Southwest 475 547 35,900 -1,014 Descending FlightAware ADS-B
Sat 07:23:54 PM 24.6790 -81.7770 225° Southwest 467 537 35,300 -1,029 Descending FlightAware ADS-B
Sat 07:24:28 PM 24.6250 -81.8370 225° Southwest 468 539 34,700 -1,457 Descending FlightAware ADS-B
Sat 07:25:04 PM 24.5730 -81.8940 225° Southwest 474 545 33,600 -1,800 Descending FlightAware ADS-B
Sat 07:25:38 PM 24.5180 -81.9550 225° Southwest 461 531 32,600 -1,800 Descending FlightAware ADS-B
Sat 07:26:14 PM 24.4650 -82.0130 225° Southwest 460 529 31,500 -1,754 Descending FlightAware ADS-B
Sat 07:26:43 PM 24.4220 -82.0600 225° Southwest 454 522 30,700 -1,823 Descending FlightAware ADS-B
Sat 07:27:33 PM 24.3470 -82.1420 225° Southwest 438 504 29,100 -1,807 Descending FlightAware ADS-B
Sat 07:28:06 PM 24.2990 -82.1940 225° Southwest 434 499 28,200 -1,714 Descending FlightAware ADS-B
Sat 07:28:43 PM 24.2450 -82.2520 224° Southwest 434 499 27,100 -1,290 Descending FlightAware ADS-B
Sat 07:29:39 PM 24.1750 -82.3290 225° Southwest 421 484 26,200 -1,212 Descending FlightAware ADS-B
Sat 07:30:22 PM 24.1160 -82.3930 225° Southwest 414 476 25,100 -1,642 Descending FlightAware ADS-B
Sat 07:31:14 PM 24.0450 -82.4640 222° Southwest 410 472 23,600 -1,011 Descending FlightAware ADS-B
Sat 07:31:51 PM 24.0000 -82.5070 221° Southwest 410 472 23,600  Level FlightAware ADS-B
Sat 07:32:27 PM 23.9560 -82.5480 220° Southwest 410 472 23,600  Level FlightAware ADS-B
Sat 07:33:04 PM 23.9110 -82.5910 221° Southwest 410 472 23,600  Level FlightAware ADS-B
Sat 07:33:40 PM 23.8670 -82.6330 221° Southwest 410 472 23,600  Level FlightAware ADS-B
Sat 07:34:16 PM 23.8230 -82.6750 221° Southwest 410 472 23,600  Level FlightAware ADS-B
Sat 07:38:00 PM 23.3612 -82.5273 164° South  Level Estimated
Sat 07:39:00 PM 23.2375 -82.4879 164° South  Level Estimated
Sat 07:40:00 PM 23.1138 -82.4486 164° South  Level Estimated
Sat 07:41:00 PM 22.9900 -82.4094 164° South  Level Estimated
Sat 07:42:00 PM 22.9891 -82.4091 164° South  Level Estimated
Sat 07:43:00 PM 22.9891 -82.4091 51° Northeast  Level Estimated
Sat 07:44:00 PM 22.9891 -82.4091 51° Northeast  Level Estimated
Sat 07:45:00 PM 22.9891 -82.4091 51° Northeast  Level Estimated
Sat 07:46:00 PM 22.9891 -82.4091 51° Northeast  Level Estimated
Sat 07:47:00 PM 22.9891 -82.4091 51° Northeast  Level Estimated
Sat 07:48:00 PM 22.9891 -82.4091 51° Northeast  Level Estimated
Sat 07:49:00 PM 22.9891 -82.4091 51° Northeast  Level Estimated
Sat 07:50:00 PM 22.9891 -82.4091 51° Northeast  Level Estimated
Sat 07:51:00 PM 22.9891 -82.4091 51° Northeast  Level Estimated
Sat 07:52:00 PM 22.9891 -82.4091 51° Northeast  Level Estimated
Sat 07:53:00 PM 22.9891 -82.4091 51° Northeast  Level Estimated
Sat 07:54:00 PM 22.9891 -82.4091 51° Northeast  Level Estimated
Sat 07:55:00 PM 22.9891 -82.4091 51° Northeast  Level Estimated
Sat 07:56:00 PM 22.9891 -82.4091 51° Northeast  Level Estimated
Sat 07:57:00 PM 22.9891 -82.4091 51° Northeast  Level Estimated
Sat 07:58:00 PM 22.9891 -82.4091 51° Northeast  Level Estimated
Sat 07:59:00 PM 22.9891 -82.4091 51° Northeast  Level Estimated
Sat 08:00:00 PM 22.9891 -82.4091 51° Northeast  Level Estimated
Sat 08:01:00 PM 22.9891 -82.4091 51° Northeast  Level Estimated
Sat 08:02:00 PM 22.9891 -82.4091 51° Northeast  Level Estimated
Sat 08:03:00 PM 22.9891 -82.4091 51° Northeast  Level Estimated

Login

Don't have an account? Register now (free) for customized features, flight alerts, and more!